<?xml version="1.0" encoding="utf-8"?>
<gpx xmlns:xsi="http://www.w3.org/2001/XMLSchema-instance" xmlns:xsd="http://www.w3.org/2001/XMLSchema" version="1.1" creator="Shapelink.com" xmlns="http://www.topografix.com/GPX/1/1" xmlns:gpxtpx="http://www.garmin.com/xmlschemas/TrackPointExtension/v1">
  <metadata>
    <name>Löpning 12.60 km, 2019-05-23</name>
    <desc></desc>
    <author><name>Marian Moron</name></author> 
    <time>2019-05-23T20:44:12Z</time>
  </metadata>
  <trk>
    <name>Löpning 12.60 km, 2019-05-23</name>
    <trkseg>
      <trkpt lat="50.839377944246" lon="3.34894791188">
        <ele>0</ele>
        <time>2019-05-23T20:44:12Z</time>
      </trkpt>
      <trkpt lat="50.839704922165" lon="3.349032317613">
        <ele>16.2</ele>
        <time>2019-05-23T20:44:20Z</time>
      </trkpt>
      <trkpt lat="50.839819251281" lon="3.349284780441">
        <ele>18.2</ele>
        <time>2019-05-23T20:44:27Z</time>
      </trkpt>
      <trkpt lat="50.839949338369" lon="3.34951452832">
        <ele>17.2</ele>
        <time>2019-05-23T20:44:35Z</time>
      </trkpt>
      <trkpt lat="50.840004994185" lon="3.34956146696">
        <ele>17.6</ele>
        <time>2019-05-23T20:44:38Z</time>
      </trkpt>
      <trkpt lat="50.84016802214" lon="3.34966037338">
        <ele>17.2</ele>
        <time>2019-05-23T20:44:45Z</time>
      </trkpt>
      <trkpt lat="50.840356698709" lon="3.349699852129">
        <ele>19.6</ele>
        <time>2019-05-23T20:44:52Z</time>
      </trkpt>
      <trkpt lat="50.840519391388" lon="3.349834213986">
        <ele>23</ele>
        <time>2019-05-23T20:45:02Z</time>
      </trkpt>
      <trkpt lat="50.840734135666" lon="3.34971904668">
        <ele>24.2</ele>
        <time>2019-05-23T20:45:08Z</time>
      </trkpt>
      <trkpt lat="50.840902611856" lon="3.349864472645">
        <ele>25</ele>
        <time>2019-05-23T20:45:12Z</time>
      </trkpt>
      <trkpt lat="50.840967320124" lon="3.349855420193">
        <ele>24</ele>
        <time>2019-05-23T20:46:25Z</time>
      </trkpt>
      <trkpt lat="50.841165049145" lon="3.349861119885">
        <ele>23.6</ele>
        <time>2019-05-23T20:46:33Z</time>
      </trkpt>
      <trkpt lat="50.841363113442" lon="3.349872351631">
        <ele>21.4</ele>
        <time>2019-05-23T20:46:40Z</time>
      </trkpt>
      <trkpt lat="50.841550448907" lon="3.349908309982">
        <ele>19</ele>
        <time>2019-05-23T20:46:46Z</time>
      </trkpt>
      <trkpt lat="50.84174214296" lon="3.349923397402">
        <ele>16.6</ele>
        <time>2019-05-23T20:46:53Z</time>
      </trkpt>
      <trkpt lat="50.8419399558" lon="3.349890791811">
        <ele>14.8</ele>
        <time>2019-05-23T20:47:00Z</time>
      </trkpt>
      <trkpt lat="50.841963676577" lon="3.349870675251">
        <ele>14.2</ele>
        <time>2019-05-23T20:47:01Z</time>
      </trkpt>
      <trkpt lat="50.842096781149" lon="3.349643861037">
        <ele>12</ele>
        <time>2019-05-23T20:47:07Z</time>
      </trkpt>
      <trkpt lat="50.84222410221" lon="3.349431044596">
        <ele>11.2</ele>
        <time>2019-05-23T20:47:13Z</time>
      </trkpt>
      <trkpt lat="50.84237749098" lon="3.349219820716">
        <ele>10.8</ele>
        <time>2019-05-23T20:47:20Z</time>
      </trkpt>
      <trkpt lat="50.842518223081" lon="3.348993257959">
        <ele>9.8</ele>
        <time>2019-05-23T20:47:27Z</time>
      </trkpt>
      <trkpt lat="50.842607574135" lon="3.348788739599">
        <ele>9.4</ele>
        <time>2019-05-23T20:47:36Z</time>
      </trkpt>
      <trkpt lat="50.842606233031" lon="3.348492858529">
        <ele>10</ele>
        <time>2019-05-23T20:47:44Z</time>
      </trkpt>
      <trkpt lat="50.842519564185" lon="3.348205694635">
        <ele>12.2</ele>
        <time>2019-05-23T20:47:52Z</time>
      </trkpt>
      <trkpt lat="50.842419065204" lon="3.347956500748">
        <ele>14.4</ele>
        <time>2019-05-23T20:47:59Z</time>
      </trkpt>
      <trkpt lat="50.842345220665" lon="3.34765793747">
        <ele>15.6</ele>
        <time>2019-05-23T20:48:07Z</time>
      </trkpt>
      <trkpt lat="50.842274142153" lon="3.347365325341">
        <ele>15</ele>
        <time>2019-05-23T20:48:14Z</time>
      </trkpt>
      <trkpt lat="50.842238435259" lon="3.347211349838">
        <ele>14.6</ele>
        <time>2019-05-23T20:48:18Z</time>
      </trkpt>
      <trkpt lat="50.84220314746" lon="3.347184863034">
        <ele>14.4</ele>
        <time>2019-05-23T20:48:20Z</time>
      </trkpt>
      <trkpt lat="50.842033749261" lon="3.347355853794">
        <ele>13.8</ele>
        <time>2019-05-23T20:48:28Z</time>
      </trkpt>
      <trkpt lat="50.841854041325" lon="3.347366582626">
        <ele>14</ele>
        <time>2019-05-23T20:48:35Z</time>
      </trkpt>
      <trkpt lat="50.841698473261" lon="3.34719693297">
        <ele>13.4</ele>
        <time>2019-05-23T20:48:42Z</time>
      </trkpt>
      <trkpt lat="50.841517424221" lon="3.34704773515">
        <ele>13</ele>
        <time>2019-05-23T20:48:50Z</time>
      </trkpt>
      <trkpt lat="50.84133729719" lon="3.347110515581">
        <ele>11.8</ele>
        <time>2019-05-23T20:48:57Z</time>
      </trkpt>
      <trkpt lat="50.841157253978" lon="3.347202548843">
        <ele>13</ele>
        <time>2019-05-23T20:49:04Z</time>
      </trkpt>
      <trkpt lat="50.840977043128" lon="3.347273878812">
        <ele>14</ele>
        <time>2019-05-23T20:49:11Z</time>
      </trkpt>
      <trkpt lat="50.840793647156" lon="3.347323834936">
        <ele>13</ele>
        <time>2019-05-23T20:49:18Z</time>
      </trkpt>
      <trkpt lat="50.840599773809" lon="3.347338922356">
        <ele>11.8</ele>
        <time>2019-05-23T20:49:25Z</time>
      </trkpt>
      <trkpt lat="50.84040355353" lon="3.347285613472">
        <ele>10.6</ele>
        <time>2019-05-23T20:49:32Z</time>
      </trkpt>
      <trkpt lat="50.840219738463" lon="3.347190311269">
        <ele>10.4</ele>
        <time>2019-05-23T20:49:39Z</time>
      </trkpt>
      <trkpt lat="50.840049166798" lon="3.347026445124">
        <ele>10.8</ele>
        <time>2019-05-23T20:49:46Z</time>
      </trkpt>
      <trkpt lat="50.839906255403" lon="3.346810695018">
        <ele>12</ele>
        <time>2019-05-23T20:49:53Z</time>
      </trkpt>
      <trkpt lat="50.839795949599" lon="3.346547084263">
        <ele>12.6</ele>
        <time>2019-05-23T20:50:00Z</time>
      </trkpt>
      <trkpt lat="50.83968438651" lon="3.346316582013">
        <ele>14.6</ele>
        <time>2019-05-23T20:50:07Z</time>
      </trkpt>
      <trkpt lat="50.839547426264" lon="3.34609890407">
        <ele>13.6</ele>
        <time>2019-05-23T20:50:17Z</time>
      </trkpt>
      <trkpt lat="50.839439551211" lon="3.34582397775">
        <ele>13.4</ele>
        <time>2019-05-23T20:50:25Z</time>
      </trkpt>
      <trkpt lat="50.839362102455" lon="3.345551146905">
        <ele>13.2</ele>
        <time>2019-05-23T20:50:32Z</time>
      </trkpt>
      <trkpt lat="50.83924517495" lon="3.345315028782">
        <ele>13.8</ele>
        <time>2019-05-23T20:50:39Z</time>
      </trkpt>
      <trkpt lat="50.83914123939" lon="3.345073462424">
        <ele>14.8</ele>
        <time>2019-05-23T20:50:46Z</time>
      </trkpt>
      <trkpt lat="50.839021713496" lon="3.344813036791">
        <ele>15.8</ele>
        <time>2019-05-23T20:50:54Z</time>
      </trkpt>
      <trkpt lat="50.838934877012" lon="3.344560490144">
        <ele>14.8</ele>
        <time>2019-05-23T20:51:02Z</time>
      </trkpt>
      <trkpt lat="50.838804622286" lon="3.344234434234">
        <ele>15.8</ele>
        <time>2019-05-23T20:51:13Z</time>
      </trkpt>
      <trkpt lat="50.838707727522" lon="3.343985743261">
        <ele>15.4</ele>
        <time>2019-05-23T20:51:21Z</time>
      </trkpt>
      <trkpt lat="50.838604965428" lon="3.343734872994">
        <ele>15.2</ele>
        <time>2019-05-23T20:51:29Z</time>
      </trkpt>
      <trkpt lat="50.83849918585" lon="3.343481991071">
        <ele>16.8</ele>
        <time>2019-05-23T20:51:37Z</time>
      </trkpt>
      <trkpt lat="50.838393825367" lon="3.34323145608">
        <ele>18.6</ele>
        <time>2019-05-23T20:51:44Z</time>
      </trkpt>
      <trkpt lat="50.838284860667" lon="3.342967342411">
        <ele>18.8</ele>
        <time>2019-05-23T20:51:51Z</time>
      </trkpt>
      <trkpt lat="50.838174219587" lon="3.342710018081">
        <ele>17.6</ele>
        <time>2019-05-23T20:51:58Z</time>
      </trkpt>
      <trkpt lat="50.838078833565" lon="3.3424418811">
        <ele>17.2</ele>
        <time>2019-05-23T20:52:05Z</time>
      </trkpt>
      <trkpt lat="50.837981100611" lon="3.342168798798">
        <ele>16.6</ele>
        <time>2019-05-23T20:52:12Z</time>
      </trkpt>
      <trkpt lat="50.837888229159" lon="3.341884065655">
        <ele>17.2</ele>
        <time>2019-05-23T20:52:19Z</time>
      </trkpt>
      <trkpt lat="50.83778588616" lon="3.341638475985">
        <ele>17.2</ele>
        <time>2019-05-23T20:52:26Z</time>
      </trkpt>
      <trkpt lat="50.837684716627" lon="3.341382073664">
        <ele>16.6</ele>
        <time>2019-05-23T20:52:34Z</time>
      </trkpt>
      <trkpt lat="50.837584804379" lon="3.341142183686">
        <ele>15.8</ele>
        <time>2019-05-23T20:52:42Z</time>
      </trkpt>
      <trkpt lat="50.837471397272" lon="3.34087278942">
        <ele>16</ele>
        <time>2019-05-23T20:52:50Z</time>
      </trkpt>
      <trkpt lat="50.837372490852" lon="3.340631558338">
        <ele>15.6</ele>
        <time>2019-05-23T20:52:57Z</time>
      </trkpt>
      <trkpt lat="50.83726788474" lon="3.340369623963">
        <ele>14.6</ele>
        <time>2019-05-23T20:53:04Z</time>
      </trkpt>
      <trkpt lat="50.837154812909" lon="3.340120430076">
        <ele>14.4</ele>
        <time>2019-05-23T20:53:11Z</time>
      </trkpt>
      <trkpt lat="50.837044758562" lon="3.339884311953">
        <ele>13.6</ele>
        <time>2019-05-23T20:53:18Z</time>
      </trkpt>
      <trkpt lat="50.836925484125" lon="3.339643667604">
        <ele>14</ele>
        <time>2019-05-23T20:53:26Z</time>
      </trkpt>
      <trkpt lat="50.836822973488" lon="3.339406627472">
        <ele>14.2</ele>
        <time>2019-05-23T20:53:34Z</time>
      </trkpt>
      <trkpt lat="50.836721636317" lon="3.339157182128">
        <ele>14.2</ele>
        <time>2019-05-23T20:53:42Z</time>
      </trkpt>
      <trkpt lat="50.836603619165" lon="3.338894912477">
        <ele>15</ele>
        <time>2019-05-23T20:53:50Z</time>
      </trkpt>
      <trkpt lat="50.836491301705" lon="3.338627446048">
        <ele>15.8</ele>
        <time>2019-05-23T20:53:58Z</time>
      </trkpt>
      <trkpt lat="50.836392730561" lon="3.338384706224">
        <ele>14.8</ele>
        <time>2019-05-23T20:54:05Z</time>
      </trkpt>
      <trkpt lat="50.83627965873" lon="3.338116736881">
        <ele>15.8</ele>
        <time>2019-05-23T20:54:13Z</time>
      </trkpt>
      <trkpt lat="50.836194833902" lon="3.337859244913">
        <ele>15.2</ele>
        <time>2019-05-23T20:54:20Z</time>
      </trkpt>
      <trkpt lat="50.836128616892" lon="3.337585659697">
        <ele>13.8</ele>
        <time>2019-05-23T20:54:27Z</time>
      </trkpt>
      <trkpt lat="50.836082264985" lon="3.337293550482">
        <ele>13.4</ele>
        <time>2019-05-23T20:54:34Z</time>
      </trkpt>
      <trkpt lat="50.836062316063" lon="3.337004961665">
        <ele>13.6</ele>
        <time>2019-05-23T20:54:41Z</time>
      </trkpt>
      <trkpt lat="50.836059047122" lon="3.336681671782">
        <ele>14.4</ele>
        <time>2019-05-23T20:54:49Z</time>
      </trkpt>
      <trkpt lat="50.836059382398" lon="3.336367769627">
        <ele>13.8</ele>
        <time>2019-05-23T20:54:57Z</time>
      </trkpt>
      <trkpt lat="50.836018059631" lon="3.336085970149">
        <ele>13.4</ele>
        <time>2019-05-23T20:55:04Z</time>
      </trkpt>
      <trkpt lat="50.835927451292" lon="3.335825963611">
        <ele>14</ele>
        <time>2019-05-23T20:55:11Z</time>
      </trkpt>
      <trkpt lat="50.835811194339" lon="3.335606609288">
        <ele>14.2</ele>
        <time>2019-05-23T20:55:18Z</time>
      </trkpt>
      <trkpt lat="50.835685465839" lon="3.335371999907">
        <ele>15</ele>
        <time>2019-05-23T20:55:26Z</time>
      </trkpt>
      <trkpt lat="50.83567197098" lon="3.335294215875">
        <ele>15.2</ele>
        <time>2019-05-23T20:55:27Z</time>
      </trkpt>
      <trkpt lat="50.835684208554" lon="3.335001855203">
        <ele>14.8</ele>
        <time>2019-05-23T20:55:35Z</time>
      </trkpt>
      <trkpt lat="50.835697032861" lon="3.33468107989">
        <ele>15.4</ele>
        <time>2019-05-23T20:55:43Z</time>
      </trkpt>
      <trkpt lat="50.835711449729" lon="3.334385031182">
        <ele>15</ele>
        <time>2019-05-23T20:55:50Z</time>
      </trkpt>
      <trkpt lat="50.835727123882" lon="3.334089401569">
        <ele>15</ele>
        <time>2019-05-23T20:55:57Z</time>
      </trkpt>
      <trkpt lat="50.835741289293" lon="3.333795029241">
        <ele>15.4</ele>
        <time>2019-05-23T20:56:04Z</time>
      </trkpt>
      <trkpt lat="50.835758639826" lon="3.333493448479">
        <ele>15</ele>
        <time>2019-05-23T20:56:12Z</time>
      </trkpt>
      <trkpt lat="50.835774481617" lon="3.333180133057">
        <ele>13.8</ele>
        <time>2019-05-23T20:56:20Z</time>
      </trkpt>
      <trkpt lat="50.835792586521" lon="3.332865979445">
        <ele>13.8</ele>
        <time>2019-05-23T20:56:28Z</time>
      </trkpt>
      <trkpt lat="50.835807422484" lon="3.332555597688">
        <ele>14.2</ele>
        <time>2019-05-23T20:56:36Z</time>
      </trkpt>
      <trkpt lat="50.835814714737" lon="3.332255944763">
        <ele>14.6</ele>
        <time>2019-05-23T20:56:44Z</time>
      </trkpt>
      <trkpt lat="50.835820833524" lon="3.331970541068">
        <ele>14.8</ele>
        <time>2019-05-23T20:56:51Z</time>
      </trkpt>
      <trkpt lat="50.835846146862" lon="3.331479864642">
        <ele>15.6</ele>
        <time>2019-05-23T20:57:03Z</time>
      </trkpt>
      <trkpt lat="50.835867436888" lon="3.331192449291">
        <ele>15.2</ele>
        <time>2019-05-23T20:57:10Z</time>
      </trkpt>
      <trkpt lat="50.835875818788" lon="3.330908219062">
        <ele>14.2</ele>
        <time>2019-05-23T20:57:17Z</time>
      </trkpt>
      <trkpt lat="50.835888643095" lon="3.330584426265">
        <ele>13.6</ele>
        <time>2019-05-23T20:57:25Z</time>
      </trkpt>
      <trkpt lat="50.835905490714" lon="3.33026549497">
        <ele>13.4</ele>
        <time>2019-05-23T20:57:33Z</time>
      </trkpt>
      <trkpt lat="50.835907837646" lon="3.329954777937">
        <ele>13</ele>
        <time>2019-05-23T20:57:41Z</time>
      </trkpt>
      <trkpt lat="50.835910938949" lon="3.329653532451">
        <ele>13.4</ele>
        <time>2019-05-23T20:57:49Z</time>
      </trkpt>
      <trkpt lat="50.835911609501" lon="3.329345497626">
        <ele>14</ele>
        <time>2019-05-23T20:57:57Z</time>
      </trkpt>
      <trkpt lat="50.835918566478" lon="3.329047353443">
        <ele>16.2</ele>
        <time>2019-05-23T20:58:05Z</time>
      </trkpt>
      <trkpt lat="50.835931558423" lon="3.32874166555">
        <ele>18</ele>
        <time>2019-05-23T20:58:13Z</time>
      </trkpt>
      <trkpt lat="50.835939102133" lon="3.328435055648">
        <ele>19.2</ele>
        <time>2019-05-23T20:58:21Z</time>
      </trkpt>
      <trkpt lat="50.835952094078" lon="3.328113274507">
        <ele>19.4</ele>
        <time>2019-05-23T20:58:29Z</time>
      </trkpt>
      <trkpt lat="50.83596952843" lon="3.32782720026">
        <ele>19</ele>
        <time>2019-05-23T20:58:36Z</time>
      </trkpt>
      <trkpt lat="50.835982017461" lon="3.327512124639">
        <ele>17.8</ele>
        <time>2019-05-23T20:58:44Z</time>
      </trkpt>
      <trkpt lat="50.835994757949" lon="3.327208029307">
        <ele>18.8</ele>
        <time>2019-05-23T20:58:52Z</time>
      </trkpt>
      <trkpt lat="50.83600808517" lon="3.326896893179">
        <ele>18.4</ele>
        <time>2019-05-23T20:59:00Z</time>
      </trkpt>
      <trkpt lat="50.836021412391" lon="3.326601682661">
        <ele>18.2</ele>
        <time>2019-05-23T20:59:08Z</time>
      </trkpt>
      <trkpt lat="50.83603993639" lon="3.326299012252">
        <ele>17.2</ele>
        <time>2019-05-23T20:59:16Z</time>
      </trkpt>
      <trkpt lat="50.836053515068" lon="3.325998353499">
        <ele>17.8</ele>
        <time>2019-05-23T20:59:24Z</time>
      </trkpt>
      <trkpt lat="50.836058292751" lon="3.325713368899">
        <ele>17.8</ele>
        <time>2019-05-23T20:59:31Z</time>
      </trkpt>
      <trkpt lat="50.836072458162" lon="3.325413380698">
        <ele>18.6</ele>
        <time>2019-05-23T20:59:38Z</time>
      </trkpt>
      <trkpt lat="50.836087629401" lon="3.325125965347">
        <ele>18.4</ele>
        <time>2019-05-23T20:59:45Z</time>
      </trkpt>
      <trkpt lat="50.836092239446" lon="3.324834191408">
        <ele>18.6</ele>
        <time>2019-05-23T20:59:52Z</time>
      </trkpt>
      <trkpt lat="50.836114200024" lon="3.32453730451">
        <ele>20.4</ele>
        <time>2019-05-23T21:00:00Z</time>
      </trkpt>
      <trkpt lat="50.836128197797" lon="3.32425231991">
        <ele>18.8</ele>
        <time>2019-05-23T21:00:08Z</time>
      </trkpt>
      <trkpt lat="50.836131634376" lon="3.323957947582">
        <ele>19.2</ele>
        <time>2019-05-23T21:00:15Z</time>
      </trkpt>
      <trkpt lat="50.836146973253" lon="3.323637172269">
        <ele>18.8</ele>
        <time>2019-05-23T21:00:23Z</time>
      </trkpt>
      <trkpt lat="50.836146051244" lon="3.323315307309">
        <ele>20</ele>
        <time>2019-05-23T21:00:31Z</time>
      </trkpt>
      <trkpt lat="50.836164659062" lon="3.323009870873">
        <ele>20.2</ele>
        <time>2019-05-23T21:00:39Z</time>
      </trkpt>
      <trkpt lat="50.836175639351" lon="3.322702255143">
        <ele>21.2</ele>
        <time>2019-05-23T21:00:47Z</time>
      </trkpt>
      <trkpt lat="50.836192906065" lon="3.322415510344">
        <ele>19.8</ele>
        <time>2019-05-23T21:00:54Z</time>
      </trkpt>
      <trkpt lat="50.836213693177" lon="3.322121892387">
        <ele>18.2</ele>
        <time>2019-05-23T21:01:01Z</time>
      </trkpt>
      <trkpt lat="50.836235569936" lon="3.321838081253">
        <ele>18</ele>
        <time>2019-05-23T21:01:08Z</time>
      </trkpt>
      <trkpt lat="50.836255267401" lon="3.32154412802">
        <ele>18.2</ele>
        <time>2019-05-23T21:01:15Z</time>
      </trkpt>
      <trkpt lat="50.836278149988" lon="3.321251515891">
        <ele>17.8</ele>
        <time>2019-05-23T21:01:22Z</time>
      </trkpt>
      <trkpt lat="50.83629223158" lon="3.320967369481">
        <ele>18.2</ele>
        <time>2019-05-23T21:01:29Z</time>
      </trkpt>
      <trkpt lat="50.836319640393" lon="3.320670817859">
        <ele>19.6</ele>
        <time>2019-05-23T21:01:36Z</time>
      </trkpt>
      <trkpt lat="50.836355347287" lon="3.32038155849">
        <ele>18.2</ele>
        <time>2019-05-23T21:01:43Z</time>
      </trkpt>
      <trkpt lat="50.836383510471" lon="3.320092215302">
        <ele>17.4</ele>
        <time>2019-05-23T21:01:50Z</time>
      </trkpt>
      <trkpt lat="50.836419971736" lon="3.319792897653">
        <ele>18.4</ele>
        <time>2019-05-23T21:01:58Z</time>
      </trkpt>
      <trkpt lat="50.836472023335" lon="3.319488718502">
        <ele>20.4</ele>
        <time>2019-05-23T21:02:06Z</time>
      </trkpt>
      <trkpt lat="50.836529523169" lon="3.31921312163">
        <ele>20.6</ele>
        <time>2019-05-23T21:02:13Z</time>
      </trkpt>
      <trkpt lat="50.836579479293" lon="3.318937105663">
        <ele>19.4</ele>
        <time>2019-05-23T21:02:21Z</time>
      </trkpt>
      <trkpt lat="50.836667908338" lon="3.318687744138">
        <ele>16.8</ele>
        <time>2019-05-23T21:02:30Z</time>
      </trkpt>
      <trkpt lat="50.836750637691" lon="3.318427318505">
        <ele>17.4</ele>
        <time>2019-05-23T21:02:37Z</time>
      </trkpt>
      <trkpt lat="50.836849208835" lon="3.318161947551">
        <ele>16.6</ele>
        <time>2019-05-23T21:02:45Z</time>
      </trkpt>
      <trkpt lat="50.836957083888" lon="3.317900180814">
        <ele>15.8</ele>
        <time>2019-05-23T21:02:53Z</time>
      </trkpt>
      <trkpt lat="50.837048530417" lon="3.317772105382">
        <ele>15.8</ele>
        <time>2019-05-23T21:02:58Z</time>
      </trkpt>
      <trkpt lat="50.837091194288" lon="3.317778727083">
        <ele>16</ele>
        <time>2019-05-23T21:03:00Z</time>
      </trkpt>
      <trkpt lat="50.837216922788" lon="3.318035129404">
        <ele>12.8</ele>
        <time>2019-05-23T21:03:07Z</time>
      </trkpt>
      <trkpt lat="50.837334604664" lon="3.318298823978">
        <ele>11.8</ele>
        <time>2019-05-23T21:03:14Z</time>
      </trkpt>
      <trkpt lat="50.837476007317" lon="3.3185115566">
        <ele>10</ele>
        <time>2019-05-23T21:03:21Z</time>
      </trkpt>
      <trkpt lat="50.837512552401" lon="3.318566541864">
        <ele>9.6</ele>
        <time>2019-05-23T21:03:22Z</time>
      </trkpt>
      <trkpt lat="50.837632581209" lon="3.31879737939">
        <ele>8.6</ele>
        <time>2019-05-23T21:03:30Z</time>
      </trkpt>
      <trkpt lat="50.837752442379" lon="3.319031569676">
        <ele>10.2</ele>
        <time>2019-05-23T21:03:37Z</time>
      </trkpt>
      <trkpt lat="50.837873309377" lon="3.319259808813">
        <ele>11</ele>
        <time>2019-05-23T21:03:44Z</time>
      </trkpt>
      <trkpt lat="50.83799291909" lon="3.319495759298">
        <ele>11.4</ele>
        <time>2019-05-23T21:03:51Z</time>
      </trkpt>
      <trkpt lat="50.838100710324" lon="3.319724585168">
        <ele>9.8</ele>
        <time>2019-05-23T21:03:58Z</time>
      </trkpt>
      <trkpt lat="50.838219649485" lon="3.319955171237">
        <ele>9</ele>
        <time>2019-05-23T21:04:05Z</time>
      </trkpt>
      <trkpt lat="50.838327105443" lon="3.320191792274">
        <ele>8</ele>
        <time>2019-05-23T21:04:12Z</time>
      </trkpt>
      <trkpt lat="50.838455851427" lon="3.320438471591">
        <ele>8.4</ele>
        <time>2019-05-23T21:04:20Z</time>
      </trkpt>
      <trkpt lat="50.838581160832" lon="3.320651623308">
        <ele>8.6</ele>
        <time>2019-05-23T21:04:27Z</time>
      </trkpt>
      <trkpt lat="50.838609743111" lon="3.32069336517">
        <ele>8.6</ele>
        <time>2019-05-23T21:04:29Z</time>
      </trkpt>
      <trkpt lat="50.838552746191" lon="3.320687916935">
        <ele>8.2</ele>
        <time>2019-05-23T21:04:33Z</time>
      </trkpt>
      <trkpt lat="50.838427855881" lon="3.32043771722">
        <ele>12</ele>
        <time>2019-05-23T21:04:41Z</time>
      </trkpt>
      <trkpt lat="50.838300367182" lon="3.320234623783">
        <ele>14</ele>
        <time>2019-05-23T21:04:48Z</time>
      </trkpt>
      <trkpt lat="50.838173549035" lon="3.319984340249">
        <ele>13.8</ele>
        <time>2019-05-23T21:04:56Z</time>
      </trkpt>
      <trkpt lat="50.838048826363" lon="3.319749060316">
        <ele>14.4</ele>
        <time>2019-05-23T21:05:04Z</time>
      </trkpt>
      <trkpt lat="50.837925947709" lon="3.319495926936">
        <ele>14.8</ele>
        <time>2019-05-23T21:05:12Z</time>
      </trkpt>
      <trkpt lat="50.837863670192" lon="3.319230891258">
        <ele>16.2</ele>
        <time>2019-05-23T21:05:19Z</time>
      </trkpt>
      <trkpt lat="50.837858305776" lon="3.318934926369">
        <ele>16.4</ele>
        <time>2019-05-23T21:05:26Z</time>
      </trkpt>
      <trkpt lat="50.837876159223" lon="3.318642733335">
        <ele>16.2</ele>
        <time>2019-05-23T21:05:33Z</time>
      </trkpt>
      <trkpt lat="50.837911698479" lon="3.31834559498">
        <ele>16</ele>
        <time>2019-05-23T21:05:40Z</time>
      </trkpt>
      <trkpt lat="50.837959056214" lon="3.318050133005">
        <ele>15.6</ele>
        <time>2019-05-23T21:05:47Z</time>
      </trkpt>
      <trkpt lat="50.837974311272" lon="3.317778307988">
        <ele>16.2</ele>
        <time>2019-05-23T21:05:55Z</time>
      </trkpt>
      <trkpt lat="50.837814552258" lon="3.317602288088">
        <ele>15.4</ele>
        <time>2019-05-23T21:06:04Z</time>
      </trkpt>
      <trkpt lat="50.837821257778" lon="3.317536825449">
        <ele>15.2</ele>
        <time>2019-05-23T21:06:05Z</time>
      </trkpt>
      <trkpt lat="50.837925696252" lon="3.317303138077">
        <ele>14.6</ele>
        <time>2019-05-23T21:06:13Z</time>
      </trkpt>
      <trkpt lat="50.838077911556" lon="3.317120496476">
        <ele>13.2</ele>
        <time>2019-05-23T21:06:20Z</time>
      </trkpt>
      <trkpt lat="50.838245968651" lon="3.316978255633">
        <ele>13</ele>
        <time>2019-05-23T21:06:27Z</time>
      </trkpt>
      <trkpt lat="50.838364907812" lon="3.316721937131">
        <ele>13.4</ele>
        <time>2019-05-23T21:06:35Z</time>
      </trkpt>
      <trkpt lat="50.838458533635" lon="3.316445585888">
        <ele>13.6</ele>
        <time>2019-05-23T21:06:43Z</time>
      </trkpt>
      <trkpt lat="50.83855702096" lon="3.316165378971">
        <ele>16.2</ele>
        <time>2019-05-23T21:06:52Z</time>
      </trkpt>
      <trkpt lat="50.838636229915" lon="3.315904869519">
        <ele>16.6</ele>
        <time>2019-05-23T21:07:00Z</time>
      </trkpt>
      <trkpt lat="50.83874058457" lon="3.315652993424">
        <ele>15.8</ele>
        <time>2019-05-23T21:07:08Z</time>
      </trkpt>
      <trkpt lat="50.838843933397" lon="3.315382509511">
        <ele>15.4</ele>
        <time>2019-05-23T21:07:16Z</time>
      </trkpt>
      <trkpt lat="50.838932865356" lon="3.315133818538">
        <ele>17.4</ele>
        <time>2019-05-23T21:07:23Z</time>
      </trkpt>
      <trkpt lat="50.83904065659" lon="3.314893425646">
        <ele>18.8</ele>
        <time>2019-05-23T21:07:30Z</time>
      </trkpt>
      <trkpt lat="50.839181556329" lon="3.314655212048">
        <ele>20.2</ele>
        <time>2019-05-23T21:07:38Z</time>
      </trkpt>
      <trkpt lat="50.839307536286" lon="3.314437450286">
        <ele>19.6</ele>
        <time>2019-05-23T21:07:46Z</time>
      </trkpt>
      <trkpt lat="50.839445669998" lon="3.31421750923">
        <ele>17.4</ele>
        <time>2019-05-23T21:07:53Z</time>
      </trkpt>
      <trkpt lat="50.839602411528" lon="3.314058839863">
        <ele>12.8</ele>
        <time>2019-05-23T21:08:00Z</time>
      </trkpt>
      <trkpt lat="50.839732330978" lon="3.313839317902">
        <ele>10</ele>
        <time>2019-05-23T21:08:07Z</time>
      </trkpt>
      <trkpt lat="50.839861496057" lon="3.313596494259">
        <ele>9.4</ele>
        <time>2019-05-23T21:08:15Z</time>
      </trkpt>
      <trkpt lat="50.839894939838" lon="3.313313688953">
        <ele>12.8</ele>
        <time>2019-05-23T21:08:23Z</time>
      </trkpt>
      <trkpt lat="50.840035671939" lon="3.313121827262">
        <ele>14</ele>
        <time>2019-05-23T21:08:30Z</time>
      </trkpt>
      <trkpt lat="50.840201885016" lon="3.312977407125">
        <ele>14.8</ele>
        <time>2019-05-23T21:08:37Z</time>
      </trkpt>
      <trkpt lat="50.840327948792" lon="3.312757801345">
        <ele>16.2</ele>
        <time>2019-05-23T21:08:44Z</time>
      </trkpt>
      <trkpt lat="50.840442026451" lon="3.312414646359">
        <ele>16</ele>
        <time>2019-05-23T21:08:54Z</time>
      </trkpt>
      <trkpt lat="50.840524420528" lon="3.312130080854">
        <ele>15</ele>
        <time>2019-05-23T21:09:03Z</time>
      </trkpt>
      <trkpt lat="50.840651741589" lon="3.311888514496">
        <ele>16.6</ele>
        <time>2019-05-23T21:09:12Z</time>
      </trkpt>
      <trkpt lat="50.840801358504" lon="3.311725235084">
        <ele>18.2</ele>
        <time>2019-05-23T21:09:20Z</time>
      </trkpt>
      <trkpt lat="50.840997746421" lon="3.311636638401">
        <ele>18</ele>
        <time>2019-05-23T21:09:28Z</time>
      </trkpt>
      <trkpt lat="50.841147530974" lon="3.311767563679">
        <ele>17.4</ele>
        <time>2019-05-23T21:09:36Z</time>
      </trkpt>
      <trkpt lat="50.841211903966" lon="3.31203570066">
        <ele>14.6</ele>
        <time>2019-05-23T21:09:44Z</time>
      </trkpt>
      <trkpt lat="50.841272421284" lon="3.312329150979">
        <ele>10.6</ele>
        <time>2019-05-23T21:09:52Z</time>
      </trkpt>
      <trkpt lat="50.841311145662" lon="3.312628049533">
        <ele>8</ele>
        <time>2019-05-23T21:10:00Z</time>
      </trkpt>
      <trkpt lat="50.841359509225" lon="3.312926193716">
        <ele>4.6</ele>
        <time>2019-05-23T21:10:07Z</time>
      </trkpt>
      <trkpt lat="50.84139764687" lon="3.313227774478">
        <ele>3.2</ele>
        <time>2019-05-23T21:10:14Z</time>
      </trkpt>
      <trkpt lat="50.841463277147" lon="3.313497923115">
        <ele>0.2</ele>
        <time>2019-05-23T21:10:21Z</time>
      </trkpt>
      <trkpt lat="50.84149739148" lon="3.313557686062">
        <ele>0</ele>
        <time>2019-05-23T21:10:23Z</time>
      </trkpt>
      <trkpt lat="50.841692186836" lon="3.313602026313">
        <ele>4.2</ele>
        <time>2019-05-23T21:10:31Z</time>
      </trkpt>
      <trkpt lat="50.841885557269" lon="3.313659023233">
        <ele>5.8</ele>
        <time>2019-05-23T21:10:39Z</time>
      </trkpt>
      <trkpt lat="50.842073060372" lon="3.313738567464">
        <ele>6</ele>
        <time>2019-05-23T21:10:48Z</time>
      </trkpt>
      <trkpt lat="50.842252181575" lon="3.313835713685">
        <ele>5.8</ele>
        <time>2019-05-23T21:10:56Z</time>
      </trkpt>
      <trkpt lat="50.84243532609" lon="3.313963872936">
        <ele>6.8</ele>
        <time>2019-05-23T21:11:04Z</time>
      </trkpt>
      <trkpt lat="50.84261805151" lon="3.31410854453">
        <ele>13.4</ele>
        <time>2019-05-23T21:11:11Z</time>
      </trkpt>
      <trkpt lat="50.842799519645" lon="3.314138384094">
        <ele>14</ele>
        <time>2019-05-23T21:11:18Z</time>
      </trkpt>
      <trkpt lat="50.842981574513" lon="3.314086667771">
        <ele>15.2</ele>
        <time>2019-05-23T21:11:26Z</time>
      </trkpt>
      <trkpt lat="50.843150218341" lon="3.313954569027">
        <ele>15.2</ele>
        <time>2019-05-23T21:11:34Z</time>
      </trkpt>
      <trkpt lat="50.84331794016" lon="3.313830181631">
        <ele>16.6</ele>
        <time>2019-05-23T21:11:42Z</time>
      </trkpt>
      <trkpt lat="50.843483482685" lon="3.313927411671">
        <ele>17</ele>
        <time>2019-05-23T21:11:51Z</time>
      </trkpt>
      <trkpt lat="50.843548358591" lon="3.314209797882">
        <ele>16.6</ele>
        <time>2019-05-23T21:11:58Z</time>
      </trkpt>
      <trkpt lat="50.843601751294" lon="3.314515653413">
        <ele>16.8</ele>
        <time>2019-05-23T21:12:05Z</time>
      </trkpt>
      <trkpt lat="50.843642906423" lon="3.314792256113">
        <ele>16</ele>
        <time>2019-05-23T21:12:12Z</time>
      </trkpt>
      <trkpt lat="50.843691856719" lon="3.315087718088">
        <ele>13.6</ele>
        <time>2019-05-23T21:12:21Z</time>
      </trkpt>
      <trkpt lat="50.84374709344" lon="3.315382760968">
        <ele>13.2</ele>
        <time>2019-05-23T21:12:29Z</time>
      </trkpt>
      <trkpt lat="50.843827727318" lon="3.31566673974">
        <ele>15.4</ele>
        <time>2019-05-23T21:12:37Z</time>
      </trkpt>
      <trkpt lat="50.843891429758" lon="3.315935379635">
        <ele>15</ele>
        <time>2019-05-23T21:12:44Z</time>
      </trkpt>
      <trkpt lat="50.84395496456" lon="3.316247102496">
        <ele>16.8</ele>
        <time>2019-05-23T21:12:52Z</time>
      </trkpt>
      <trkpt lat="50.844009279272" lon="3.31653929553">
        <ele>16.8</ele>
        <time>2019-05-23T21:13:00Z</time>
      </trkpt>
      <trkpt lat="50.844076166834" lon="3.316841630663">
        <ele>13.6</ele>
        <time>2019-05-23T21:13:08Z</time>
      </trkpt>
      <trkpt lat="50.844155627246" lon="3.317116556983">
        <ele>14.2</ele>
        <time>2019-05-23T21:13:15Z</time>
      </trkpt>
      <trkpt lat="50.844235339115" lon="3.317378575177">
        <ele>13.4</ele>
        <time>2019-05-23T21:13:22Z</time>
      </trkpt>
      <trkpt lat="50.844313542242" lon="3.317643527036">
        <ele>13.8</ele>
        <time>2019-05-23T21:13:29Z</time>
      </trkpt>
      <trkpt lat="50.844402977115" lon="3.317895989864">
        <ele>13.6</ele>
        <time>2019-05-23T21:13:36Z</time>
      </trkpt>
      <trkpt lat="50.844413957404" lon="3.318173430754">
        <ele>13</ele>
        <time>2019-05-23T21:13:43Z</time>
      </trkpt>
      <trkpt lat="50.844320163943" lon="3.318448440893">
        <ele>14.4</ele>
        <time>2019-05-23T21:13:50Z</time>
      </trkpt>
      <trkpt lat="50.84426928581" lon="3.31873032419">
        <ele>14</ele>
        <time>2019-05-23T21:13:58Z</time>
      </trkpt>
      <trkpt lat="50.844272470932" lon="3.318781286142">
        <ele>13.6</ele>
        <time>2019-05-23T21:14:00Z</time>
      </trkpt>
      <trkpt lat="50.844299293012" lon="3.318795954467">
        <ele>11.2</ele>
        <time>2019-05-23T21:14:07Z</time>
      </trkpt>
      <trkpt lat="50.844283870316" lon="3.318749518741">
        <ele>10.8</ele>
        <time>2019-05-23T21:14:09Z</time>
      </trkpt>
      <trkpt lat="50.84427263857" lon="3.31860878664">
        <ele>9.4</ele>
        <time>2019-05-23T21:14:14Z</time>
      </trkpt>
      <trkpt lat="50.844313458423" lon="3.318470988204">
        <ele>10</ele>
        <time>2019-05-23T21:14:18Z</time>
      </trkpt>
      <trkpt lat="50.844329551671" lon="3.318426983229">
        <ele>10.4</ele>
        <time>2019-05-23T21:14:20Z</time>
      </trkpt>
      <trkpt lat="50.844439689837" lon="3.318168820709">
        <ele>12.8</ele>
        <time>2019-05-23T21:14:28Z</time>
      </trkpt>
      <trkpt lat="50.844490651789" lon="3.318144513199">
        <ele>12.8</ele>
        <time>2019-05-23T21:14:29Z</time>
      </trkpt>
      <trkpt lat="50.844512193272" lon="3.318161696094">
        <ele>12.8</ele>
        <time>2019-05-23T21:14:31Z</time>
      </trkpt>
      <trkpt lat="50.844624762189" lon="3.318387672118">
        <ele>12.6</ele>
        <time>2019-05-23T21:14:38Z</time>
      </trkpt>
      <trkpt lat="50.844777648045" lon="3.318594453591">
        <ele>14.8</ele>
        <time>2019-05-23T21:14:46Z</time>
      </trkpt>
      <trkpt lat="50.844911423169" lon="3.318805509833">
        <ele>14.6</ele>
        <time>2019-05-23T21:14:53Z</time>
      </trkpt>
      <trkpt lat="50.845070511631" lon="3.319089823881">
        <ele>15.4</ele>
        <time>2019-05-23T21:15:03Z</time>
      </trkpt>
      <trkpt lat="50.845177297037" lon="3.31932376271">
        <ele>16</ele>
        <time>2019-05-23T21:15:10Z</time>
      </trkpt>
      <trkpt lat="50.845287854298" lon="3.319552001847">
        <ele>16</ele>
        <time>2019-05-23T21:15:17Z</time>
      </trkpt>
      <trkpt lat="50.845385671071" lon="3.319799184078">
        <ele>14.4</ele>
        <time>2019-05-23T21:15:25Z</time>
      </trkpt>
      <trkpt lat="50.845456581945" lon="3.320080313004">
        <ele>13.4</ele>
        <time>2019-05-23T21:15:32Z</time>
      </trkpt>
      <trkpt lat="50.845541742049" lon="3.320334871307">
        <ele>11</ele>
        <time>2019-05-23T21:15:39Z</time>
      </trkpt>
      <trkpt lat="50.845586333757" lon="3.320414164081">
        <ele>11</ele>
        <time>2019-05-23T21:15:42Z</time>
      </trkpt>
      <trkpt lat="50.84567744501" lon="3.320547687748">
        <ele>13.6</ele>
        <time>2019-05-23T21:16:25Z</time>
      </trkpt>
      <trkpt lat="50.845807867374" lon="3.320764024587">
        <ele>13.8</ele>
        <time>2019-05-23T21:16:35Z</time>
      </trkpt>
      <trkpt lat="50.845939463204" lon="3.321005507126">
        <ele>15.6</ele>
        <time>2019-05-23T21:16:42Z</time>
      </trkpt>
      <trkpt lat="50.84604289585" lon="3.32123902686">
        <ele>17.2</ele>
        <time>2019-05-23T21:16:49Z</time>
      </trkpt>
      <trkpt lat="50.846151609093" lon="3.321504984547">
        <ele>17.8</ele>
        <time>2019-05-23T21:16:57Z</time>
      </trkpt>
      <trkpt lat="50.846230734229" lon="3.321799859789">
        <ele>17</ele>
        <time>2019-05-23T21:17:05Z</time>
      </trkpt>
      <trkpt lat="50.846318241265" lon="3.322091298452">
        <ele>15.4</ele>
        <time>2019-05-23T21:17:13Z</time>
      </trkpt>
      <trkpt lat="50.846402227903" lon="3.322351640266">
        <ele>12.6</ele>
        <time>2019-05-23T21:17:20Z</time>
      </trkpt>
      <trkpt lat="50.846488142378" lon="3.322620615437">
        <ele>9.4</ele>
        <time>2019-05-23T21:17:27Z</time>
      </trkpt>
      <trkpt lat="50.846539188149" lon="3.322916831783">
        <ele>6.4</ele>
        <time>2019-05-23T21:17:34Z</time>
      </trkpt>
      <trkpt lat="50.846562322193" lon="3.323212880491">
        <ele>3.2</ele>
        <time>2019-05-23T21:17:41Z</time>
      </trkpt>
      <trkpt lat="50.846574978862" lon="3.323524016619">
        <ele>4.6</ele>
        <time>2019-05-23T21:17:48Z</time>
      </trkpt>
      <trkpt lat="50.846563998573" lon="3.323812605436">
        <ele>6.4</ele>
        <time>2019-05-23T21:17:55Z</time>
      </trkpt>
      <trkpt lat="50.846578583079" lon="3.324114437655">
        <ele>5.8</ele>
        <time>2019-05-23T21:18:02Z</time>
      </trkpt>
      <trkpt lat="50.846580427097" lon="3.324433285131">
        <ele>3.8</ele>
        <time>2019-05-23T21:18:09Z</time>
      </trkpt>
      <trkpt lat="50.84660113039" lon="3.324748360752">
        <ele>4.8</ele>
        <time>2019-05-23T21:18:16Z</time>
      </trkpt>
      <trkpt lat="50.846620744036" lon="3.324864533886">
        <ele>6.6</ele>
        <time>2019-05-23T21:18:19Z</time>
      </trkpt>
      <trkpt lat="50.846644297175" lon="3.32487258051">
        <ele>7</ele>
        <time>2019-05-23T21:18:21Z</time>
      </trkpt>
      <trkpt lat="50.846841523282" lon="3.324809548622">
        <ele>10.6</ele>
        <time>2019-05-23T21:18:30Z</time>
      </trkpt>
      <trkpt lat="50.847027014729" lon="3.324761687973">
        <ele>13.8</ele>
        <time>2019-05-23T21:18:38Z</time>
      </trkpt>
      <trkpt lat="50.847048975307" lon="3.324775099013">
        <ele>14</ele>
        <time>2019-05-23T21:18:39Z</time>
      </trkpt>
      <trkpt lat="50.847074204826" lon="3.324820277454">
        <ele>14</ele>
        <time>2019-05-23T21:18:41Z</time>
      </trkpt>
      <trkpt lat="50.847114186489" lon="3.325136526541">
        <ele>12.2</ele>
        <time>2019-05-23T21:18:50Z</time>
      </trkpt>
      <trkpt lat="50.847138493999" lon="3.325445818651">
        <ele>9.2</ele>
        <time>2019-05-23T21:18:58Z</time>
      </trkpt>
      <trkpt lat="50.847144528967" lon="3.325764079394">
        <ele>7.2</ele>
        <time>2019-05-23T21:19:07Z</time>
      </trkpt>
      <trkpt lat="50.847190880874" lon="3.326049902184">
        <ele>4.2</ele>
        <time>2019-05-23T21:19:15Z</time>
      </trkpt>
      <trkpt lat="50.847216864764" lon="3.326360451579">
        <ele>0.6</ele>
        <time>2019-05-23T21:19:23Z</time>
      </trkpt>
      <trkpt lat="50.847260366825" lon="3.326656751744">
        <ele>0</ele>
        <time>2019-05-23T21:19:30Z</time>
      </trkpt>
      <trkpt lat="50.847300935221" lon="3.326951962262">
        <ele>0</ele>
        <time>2019-05-23T21:19:38Z</time>
      </trkpt>
      <trkpt lat="50.847342760902" lon="3.327234097016">
        <ele>0.4</ele>
        <time>2019-05-23T21:19:45Z</time>
      </trkpt>
      <trkpt lat="50.847381317642" lon="3.327543640583">
        <ele>2.8</ele>
        <time>2019-05-23T21:19:52Z</time>
      </trkpt>
      <trkpt lat="50.847403026763" lon="3.327862907154">
        <ele>8.4</ele>
        <time>2019-05-23T21:19:59Z</time>
      </trkpt>
      <trkpt lat="50.847424065332" lon="3.328156273654">
        <ele>9.6</ele>
        <time>2019-05-23T21:20:06Z</time>
      </trkpt>
      <trkpt lat="50.847404032591" lon="3.328369844466">
        <ele>18.2</ele>
        <time>2019-05-23T21:20:54Z</time>
      </trkpt>
      <trkpt lat="50.847407552989" lon="3.328392475596">
        <ele>18.2</ele>
        <time>2019-05-23T21:20:55Z</time>
      </trkpt>
      <trkpt lat="50.847428926834" lon="3.328676370549">
        <ele>16.2</ele>
        <time>2019-05-23T21:21:03Z</time>
      </trkpt>
      <trkpt lat="50.847432531051" lon="3.328978370406">
        <ele>13.8</ele>
        <time>2019-05-23T21:21:10Z</time>
      </trkpt>
      <trkpt lat="50.847442924607" lon="3.329290093267">
        <ele>11.4</ele>
        <time>2019-05-23T21:21:17Z</time>
      </trkpt>
      <trkpt lat="50.847475446379" lon="3.329611036218">
        <ele>8.6</ele>
        <time>2019-05-23T21:21:24Z</time>
      </trkpt>
      <trkpt lat="50.847485839935" lon="3.329928039676">
        <ele>7.4</ele>
        <time>2019-05-23T21:21:31Z</time>
      </trkpt>
      <trkpt lat="50.847546524891" lon="3.330245126953">
        <ele>8</ele>
        <time>2019-05-23T21:21:38Z</time>
      </trkpt>
      <trkpt lat="50.847584494898" lon="3.330525250051">
        <ele>7.8</ele>
        <time>2019-05-23T21:21:44Z</time>
      </trkpt>
      <trkpt lat="50.847699410747" lon="3.330780227449">
        <ele>8.6</ele>
        <time>2019-05-23T21:21:52Z</time>
      </trkpt>
      <trkpt lat="50.847842992694" lon="3.331006119654">
        <ele>11.4</ele>
        <time>2019-05-23T21:22:00Z</time>
      </trkpt>
      <trkpt lat="50.847977857465" lon="3.331216337706">
        <ele>14</ele>
        <time>2019-05-23T21:22:07Z</time>
      </trkpt>
      <trkpt lat="50.848107944553" lon="3.33142638812">
        <ele>16.8</ele>
        <time>2019-05-23T21:22:14Z</time>
      </trkpt>
      <trkpt lat="50.848279605865" lon="3.331712043272">
        <ele>17</ele>
        <time>2019-05-23T21:22:24Z</time>
      </trkpt>
      <trkpt lat="50.848414386817" lon="3.331958722589">
        <ele>15.2</ele>
        <time>2019-05-23T21:22:32Z</time>
      </trkpt>
      <trkpt lat="50.848541875516" lon="3.332171287573">
        <ele>14.6</ele>
        <time>2019-05-23T21:22:39Z</time>
      </trkpt>
      <trkpt lat="50.848666514369" lon="3.332384020195">
        <ele>14.6</ele>
        <time>2019-05-23T21:22:46Z</time>
      </trkpt>
      <trkpt lat="50.848798194018" lon="3.332601362862">
        <ele>15.8</ele>
        <time>2019-05-23T21:22:54Z</time>
      </trkpt>
      <trkpt lat="50.848930711857" lon="3.332812419104">
        <ele>16.8</ele>
        <time>2019-05-23T21:23:02Z</time>
      </trkpt>
      <trkpt lat="50.849064235524" lon="3.333042753716">
        <ele>14.8</ele>
        <time>2019-05-23T21:23:10Z</time>
      </trkpt>
      <trkpt lat="50.849178899916" lon="3.333304185177">
        <ele>13.2</ele>
        <time>2019-05-23T21:23:19Z</time>
      </trkpt>
      <trkpt lat="50.849223910719" lon="3.33361993135">
        <ele>12.6</ele>
        <time>2019-05-23T21:23:27Z</time>
      </trkpt>
      <trkpt lat="50.849240003967" lon="3.333940622844">
        <ele>12.6</ele>
        <time>2019-05-23T21:23:35Z</time>
      </trkpt>
      <trkpt lat="50.849250565161" lon="3.334248825307">
        <ele>12.4</ele>
        <time>2019-05-23T21:23:43Z</time>
      </trkpt>
      <trkpt lat="50.849260036708" lon="3.33455367501">
        <ele>12.2</ele>
        <time>2019-05-23T21:23:51Z</time>
      </trkpt>
      <trkpt lat="50.849267915694" lon="3.334858524713">
        <ele>11.6</ele>
        <time>2019-05-23T21:23:59Z</time>
      </trkpt>
      <trkpt lat="50.84927244192" lon="3.334933710356">
        <ele>11.6</ele>
        <time>2019-05-23T21:24:00Z</time>
      </trkpt>
      <trkpt lat="50.849291468833" lon="3.335233195643">
        <ele>12.6</ele>
        <time>2019-05-23T21:24:09Z</time>
      </trkpt>
      <trkpt lat="50.849314016144" lon="3.335532513292">
        <ele>13.2</ele>
        <time>2019-05-23T21:24:17Z</time>
      </trkpt>
      <trkpt lat="50.849319883474" lon="3.335832250036">
        <ele>13</ele>
        <time>2019-05-23T21:24:26Z</time>
      </trkpt>
      <trkpt lat="50.849330696125" lon="3.336133076427">
        <ele>13.2</ele>
        <time>2019-05-23T21:24:34Z</time>
      </trkpt>
      <trkpt lat="50.849345448269" lon="3.336446056573">
        <ele>14.2</ele>
        <time>2019-05-23T21:24:42Z</time>
      </trkpt>
      <trkpt lat="50.849361625336" lon="3.336752582656">
        <ele>15</ele>
        <time>2019-05-23T21:24:50Z</time>
      </trkpt>
      <trkpt lat="50.84938056843" lon="3.337047793174">
        <ele>16.4</ele>
        <time>2019-05-23T21:24:58Z</time>
      </trkpt>
      <trkpt lat="50.849381909534" lon="3.337338309828">
        <ele>16.4</ele>
        <time>2019-05-23T21:25:06Z</time>
      </trkpt>
      <trkpt lat="50.849389369425" lon="3.337633436527">
        <ele>15.6</ele>
        <time>2019-05-23T21:25:14Z</time>
      </trkpt>
      <trkpt lat="50.849393057461" lon="3.337936106936">
        <ele>15</ele>
        <time>2019-05-23T21:25:22Z</time>
      </trkpt>
      <trkpt lat="50.849391548719" lon="3.338245985779">
        <ele>14</ele>
        <time>2019-05-23T21:25:30Z</time>
      </trkpt>
      <trkpt lat="50.849360116594" lon="3.338560558486">
        <ele>14.6</ele>
        <time>2019-05-23T21:25:39Z</time>
      </trkpt>
      <trkpt lat="50.84924981079" lon="3.338829785114">
        <ele>17.2</ele>
        <time>2019-05-23T21:25:47Z</time>
      </trkpt>
      <trkpt lat="50.849122322091" lon="3.33907151911">
        <ele>19.4</ele>
        <time>2019-05-23T21:25:55Z</time>
      </trkpt>
      <trkpt lat="50.849002293283" lon="3.33929615403">
        <ele>20.6</ele>
        <time>2019-05-23T21:26:03Z</time>
      </trkpt>
      <trkpt lat="50.848889724366" lon="3.339537468931">
        <ele>21</ele>
        <time>2019-05-23T21:26:11Z</time>
      </trkpt>
      <trkpt lat="50.848775479069" lon="3.339787165732">
        <ele>20.4</ele>
        <time>2019-05-23T21:26:19Z</time>
      </trkpt>
      <trkpt lat="50.848660647039" lon="3.34000693915">
        <ele>18.4</ele>
        <time>2019-05-23T21:26:26Z</time>
      </trkpt>
      <trkpt lat="50.848559728963" lon="3.340251271535">
        <ele>17.8</ele>
        <time>2019-05-23T21:26:33Z</time>
      </trkpt>
      <trkpt lat="50.848445567485" lon="3.340514798471">
        <ele>18.8</ele>
        <time>2019-05-23T21:26:41Z</time>
      </trkpt>
      <trkpt lat="50.848336267509" lon="3.340785282384">
        <ele>18.8</ele>
        <time>2019-05-23T21:26:49Z</time>
      </trkpt>
      <trkpt lat="50.848235181795" lon="3.341030452959">
        <ele>17.8</ele>
        <time>2019-05-23T21:26:56Z</time>
      </trkpt>
      <trkpt lat="50.848128647846" lon="3.341308229125">
        <ele>17</ele>
        <time>2019-05-23T21:27:04Z</time>
      </trkpt>
      <trkpt lat="50.848024796105" lon="3.341592207897">
        <ele>16</ele>
        <time>2019-05-23T21:27:12Z</time>
      </trkpt>
      <trkpt lat="50.847925973504" lon="3.341874761746">
        <ele>15.2</ele>
        <time>2019-05-23T21:27:20Z</time>
      </trkpt>
      <trkpt lat="50.84781315313" lon="3.342135774112">
        <ele>15.8</ele>
        <time>2019-05-23T21:27:28Z</time>
      </trkpt>
      <trkpt lat="50.847620285611" lon="3.342136193207">
        <ele>15.6</ele>
        <time>2019-05-23T21:27:36Z</time>
      </trkpt>
      <trkpt lat="50.847436973458" lon="3.342070898206">
        <ele>15.2</ele>
        <time>2019-05-23T21:27:43Z</time>
      </trkpt>
      <trkpt lat="50.847234969668" lon="3.342090930947">
        <ele>13.4</ele>
        <time>2019-05-23T21:27:51Z</time>
      </trkpt>
      <trkpt lat="50.847049478221" lon="3.342138707777">
        <ele>13</ele>
        <time>2019-05-23T21:27:58Z</time>
      </trkpt>
      <trkpt lat="50.846865579335" lon="3.342191010833">
        <ele>13.2</ele>
        <time>2019-05-23T21:28:05Z</time>
      </trkpt>
      <trkpt lat="50.846670783979" lon="3.342260329146">
        <ele>13.6</ele>
        <time>2019-05-23T21:28:13Z</time>
      </trkpt>
      <trkpt lat="50.846300136361" lon="3.342404246369">
        <ele>14.4</ele>
        <time>2019-05-23T21:28:30Z</time>
      </trkpt>
      <trkpt lat="50.84612503847" lon="3.34250223078">
        <ele>13</ele>
        <time>2019-05-23T21:28:37Z</time>
      </trkpt>
      <trkpt lat="50.845952203692" lon="3.342609602919">
        <ele>12.4</ele>
        <time>2019-05-23T21:28:44Z</time>
      </trkpt>
      <trkpt lat="50.845787080262" lon="3.342728122985">
        <ele>13.6</ele>
        <time>2019-05-23T21:28:53Z</time>
      </trkpt>
      <trkpt lat="50.845611647095" lon="3.342817725496">
        <ele>14</ele>
        <time>2019-05-23T21:29:02Z</time>
      </trkpt>
      <trkpt lat="50.845421294146" lon="3.342907579464">
        <ele>13.6</ele>
        <time>2019-05-23T21:29:10Z</time>
      </trkpt>
      <trkpt lat="50.84523907164" lon="3.343006569703">
        <ele>12.8</ele>
        <time>2019-05-23T21:29:18Z</time>
      </trkpt>
      <trkpt lat="50.845063219378" lon="3.343143194673">
        <ele>13</ele>
        <time>2019-05-23T21:29:26Z</time>
      </trkpt>
      <trkpt lat="50.844896335749" lon="3.343276047788">
        <ele>11.8</ele>
        <time>2019-05-23T21:29:34Z</time>
      </trkpt>
      <trkpt lat="50.844882757071" lon="3.343288285362">
        <ele>11.8</ele>
        <time>2019-05-23T21:29:35Z</time>
      </trkpt>
      <trkpt lat="50.844846128168" lon="3.343252662287">
        <ele>10.6</ele>
        <time>2019-05-23T21:32:08Z</time>
      </trkpt>
      <trkpt lat="50.844671952286" lon="3.343412840396">
        <ele>10.8</ele>
        <time>2019-05-23T21:32:17Z</time>
      </trkpt>
      <trkpt lat="50.844493753092" lon="3.343548878633">
        <ele>11.2</ele>
        <time>2019-05-23T21:32:24Z</time>
      </trkpt>
      <trkpt lat="50.844301639944" lon="3.343675612961">
        <ele>11.8</ele>
        <time>2019-05-23T21:32:31Z</time>
      </trkpt>
      <trkpt lat="50.844123105474" lon="3.343783571833">
        <ele>12.2</ele>
        <time>2019-05-23T21:32:38Z</time>
      </trkpt>
      <trkpt lat="50.843949600144" lon="3.343905696116">
        <ele>11.4</ele>
        <time>2019-05-23T21:32:45Z</time>
      </trkpt>
      <trkpt lat="50.843776346271" lon="3.344033436272">
        <ele>12.6</ele>
        <time>2019-05-23T21:32:52Z</time>
      </trkpt>
      <trkpt lat="50.843613485954" lon="3.344162433713">
        <ele>12.2</ele>
        <time>2019-05-23T21:32:59Z</time>
      </trkpt>
      <trkpt lat="50.843464707229" lon="3.344326467496">
        <ele>12.4</ele>
        <time>2019-05-23T21:33:06Z</time>
      </trkpt>
      <trkpt lat="50.843305870224" lon="3.344474240393">
        <ele>12.8</ele>
        <time>2019-05-23T21:33:13Z</time>
      </trkpt>
      <trkpt lat="50.843171759824" lon="3.344671885595">
        <ele>13</ele>
        <time>2019-05-23T21:33:20Z</time>
      </trkpt>
      <trkpt lat="50.843048378256" lon="3.344916553256">
        <ele>14.2</ele>
        <time>2019-05-23T21:33:28Z</time>
      </trkpt>
      <trkpt lat="50.842956931727" lon="3.345198436553">
        <ele>14.8</ele>
        <time>2019-05-23T21:33:36Z</time>
      </trkpt>
      <trkpt lat="50.842907646155" lon="3.345491635415">
        <ele>14.8</ele>
        <time>2019-05-23T21:33:43Z</time>
      </trkpt>
      <trkpt lat="50.84284939195" lon="3.345774189264">
        <ele>14.6</ele>
        <time>2019-05-23T21:33:50Z</time>
      </trkpt>
      <trkpt lat="50.842770518271" lon="3.346038889666">
        <ele>13.8</ele>
        <time>2019-05-23T21:33:57Z</time>
      </trkpt>
      <trkpt lat="50.842664738693" lon="3.346304847353">
        <ele>15</ele>
        <time>2019-05-23T21:34:04Z</time>
      </trkpt>
      <trkpt lat="50.842550912491" lon="3.346549263557">
        <ele>16.4</ele>
        <time>2019-05-23T21:34:11Z</time>
      </trkpt>
      <trkpt lat="50.842427447104" lon="3.346778843798">
        <ele>15.6</ele>
        <time>2019-05-23T21:34:18Z</time>
      </trkpt>
      <trkpt lat="50.842332144901" lon="3.347063157846">
        <ele>14.6</ele>
        <time>2019-05-23T21:34:26Z</time>
      </trkpt>
      <trkpt lat="50.842320326422" lon="3.347356440527">
        <ele>13.2</ele>
        <time>2019-05-23T21:34:34Z</time>
      </trkpt>
      <trkpt lat="50.842390231468" lon="3.347661541687">
        <ele>11.6</ele>
        <time>2019-05-23T21:34:42Z</time>
      </trkpt>
      <trkpt lat="50.842472625545" lon="3.347943005889">
        <ele>9.4</ele>
        <time>2019-05-23T21:34:50Z</time>
      </trkpt>
      <trkpt lat="50.842567341015" lon="3.348230840335">
        <ele>8.2</ele>
        <time>2019-05-23T21:34:58Z</time>
      </trkpt>
      <trkpt lat="50.842649986549" lon="3.348497384755">
        <ele>7.8</ele>
        <time>2019-05-23T21:35:05Z</time>
      </trkpt>
      <trkpt lat="50.842642275201" lon="3.34881463967">
        <ele>7.4</ele>
        <time>2019-05-23T21:35:13Z</time>
      </trkpt>
      <trkpt lat="50.842567592472" lon="3.34908453685">
        <ele>7.4</ele>
        <time>2019-05-23T21:35:21Z</time>
      </trkpt>
      <trkpt lat="50.842400457386" lon="3.349268854831">
        <ele>10</ele>
        <time>2019-05-23T21:35:29Z</time>
      </trkpt>
      <trkpt lat="50.842260731113" lon="3.349470774802">
        <ele>12.2</ele>
        <time>2019-05-23T21:35:36Z</time>
      </trkpt>
      <trkpt lat="50.84212184303" lon="3.349682753053">
        <ele>13.4</ele>
        <time>2019-05-23T21:35:43Z</time>
      </trkpt>
      <trkpt lat="50.841992426494" lon="3.34989674296">
        <ele>14.8</ele>
        <time>2019-05-23T21:35:51Z</time>
      </trkpt>
      <trkpt lat="50.841975075961" lon="3.349908812896">
        <ele>15.2</ele>
        <time>2019-05-23T21:35:52Z</time>
      </trkpt>
      <trkpt lat="50.841777095483" lon="3.349881068807">
        <ele>15.8</ele>
        <time>2019-05-23T21:36:00Z</time>
      </trkpt>
      <trkpt lat="50.841582719222" lon="3.349847457388">
        <ele>14.6</ele>
        <time>2019-05-23T21:36:07Z</time>
      </trkpt>
      <trkpt lat="50.841382224174" lon="3.349789203183">
        <ele>13.8</ele>
        <time>2019-05-23T21:36:15Z</time>
      </trkpt>
      <trkpt lat="50.841204108799" lon="3.349744276199">
        <ele>14</ele>
        <time>2019-05-23T21:36:22Z</time>
      </trkpt>
      <trkpt lat="50.841002943199" lon="3.349714771911">
        <ele>12.6</ele>
        <time>2019-05-23T21:36:30Z</time>
      </trkpt>
      <trkpt lat="50.840825749833" lon="3.349662804131">
        <ele>11.2</ele>
        <time>2019-05-23T21:36:37Z</time>
      </trkpt>
      <trkpt lat="50.8406407613" lon="3.349574710362">
        <ele>10.2</ele>
        <time>2019-05-23T21:36:45Z</time>
      </trkpt>
      <trkpt lat="50.840516206266" lon="3.349442192523">
        <ele>10.4</ele>
        <time>2019-05-23T21:36:53Z</time>
      </trkpt>
      <trkpt lat="50.840301042893" lon="3.349477312684">
        <ele>8.4</ele>
        <time>2019-05-23T21:36:59Z</time>
      </trkpt>
      <trkpt lat="50.840097781818" lon="3.349512684302">
        <ele>12.8</ele>
        <time>2019-05-23T21:37:05Z</time>
      </trkpt>
      <trkpt lat="50.839909105249" lon="3.349509331542">
        <ele>13.4</ele>
        <time>2019-05-23T21:37:12Z</time>
      </trkpt>
      <trkpt lat="50.839724200535" lon="3.349489885534">
        <ele>13.8</ele>
        <time>2019-05-23T21:37:19Z</time>
      </trkpt>
      <trkpt lat="50.839605512831" lon="3.349457615219">
        <ele>12</ele>
        <time>2019-05-23T21:37:24Z</time>
      </trkpt>
      <trkpt lat="50.839419099375" lon="3.349373209486">
        <ele>14.8</ele>
        <time>2019-05-23T21:39:15Z</time>
      </trkpt>
      <trkpt lat="50.839235451946" lon="3.349386033793">
        <ele>18.6</ele>
        <time>2019-05-23T21:39:24Z</time>
      </trkpt>
      <trkpt lat="50.839037890563" lon="3.349350662175">
        <ele>19.2</ele>
        <time>2019-05-23T21:39:31Z</time>
      </trkpt>
      <trkpt lat="50.838987180068" lon="3.349292324151">
        <ele>18</ele>
        <time>2019-05-23T21:42:11Z</time>
      </trkpt>
      <trkpt lat="50.838842173198" lon="3.349229795177">
        <ele>19.8</ele>
        <time>2019-05-23T21:42:21Z</time>
      </trkpt>
      <trkpt lat="50.838809986702" lon="3.349266591718">
        <ele>20.8</ele>
        <time>2019-05-23T21:44:07Z</time>
      </trkpt>
      <trkpt lat="50.838991957751" lon="3.349303639716">
        <ele>21.6</ele>
        <time>2019-05-23T21:44:17Z</time>
      </trkpt>
      <trkpt lat="50.839192955713" lon="3.349295844549">
        <ele>19</ele>
        <time>2019-05-23T21:44:24Z</time>
      </trkpt>
      <trkpt lat="50.839387583431" lon="3.34932509738">
        <ele>19.6</ele>
        <time>2019-05-23T21:44:31Z</time>
      </trkpt>
      <trkpt lat="50.83959470018" lon="3.349341693542">
        <ele>20.4</ele>
        <time>2019-05-23T21:44:38Z</time>
      </trkpt>
      <trkpt lat="50.839795279047" lon="3.349359546989">
        <ele>17.6</ele>
        <time>2019-05-23T21:44:45Z</time>
      </trkpt>
      <trkpt lat="50.84000206052" lon="3.349422159782">
        <ele>16.6</ele>
        <time>2019-05-23T21:44:52Z</time>
      </trkpt>
      <trkpt lat="50.84019568241" lon="3.349457950495">
        <ele>16.2</ele>
        <time>2019-05-23T21:44:58Z</time>
      </trkpt>
      <trkpt lat="50.840383101694" lon="3.349501787832">
        <ele>17.4</ele>
        <time>2019-05-23T21:45:04Z</time>
      </trkpt>
      <trkpt lat="50.840571694444" lon="3.349607735048">
        <ele>19</ele>
        <time>2019-05-23T21:45:11Z</time>
      </trkpt>
      <trkpt lat="50.840752743484" lon="3.34966204976">
        <ele>19.8</ele>
        <time>2019-05-23T21:45:16Z</time>
      </trkpt>
      <trkpt lat="50.840938821664" lon="3.349629192712">
        <ele>17.6</ele>
        <time>2019-05-23T21:45:23Z</time>
      </trkpt>
      <trkpt lat="50.841118613419" lon="3.349668671461">
        <ele>17.6</ele>
        <time>2019-05-23T21:45:29Z</time>
      </trkpt>
      <trkpt lat="50.841322293589" lon="3.349701277052">
        <ele>17.6</ele>
        <time>2019-05-23T21:45:36Z</time>
      </trkpt>
      <trkpt lat="50.841524045922" lon="3.34974419238">
        <ele>18</ele>
        <time>2019-05-23T21:45:42Z</time>
      </trkpt>
      <trkpt lat="50.841702412754" lon="3.349784174043">
        <ele>17.6</ele>
        <time>2019-05-23T21:45:48Z</time>
      </trkpt>
      <trkpt lat="50.841895950825" lon="3.34982465862">
        <ele>18.2</ele>
        <time>2019-05-23T21:45:55Z</time>
      </trkpt>
      <trkpt lat="50.842080855539" lon="3.349843517895">
        <ele>16.8</ele>
        <time>2019-05-23T21:46:02Z</time>
      </trkpt>
      <trkpt lat="50.84227774637" lon="3.349895150399">
        <ele>18.2</ele>
        <time>2019-05-23T21:46:10Z</time>
      </trkpt>
      <trkpt lat="50.842464076007" lon="3.349940999392">
        <ele>19</ele>
        <time>2019-05-23T21:46:17Z</time>
      </trkpt>
      <trkpt lat="50.842644789771" lon="3.34996295997">
        <ele>19.6</ele>
        <time>2019-05-23T21:46:24Z</time>
      </trkpt>
      <trkpt lat="50.842829359209" lon="3.349974191716">
        <ele>17.8</ele>
        <time>2019-05-23T21:46:31Z</time>
      </trkpt>
      <trkpt lat="50.843014599199" lon="3.350007886954">
        <ele>17.4</ele>
        <time>2019-05-23T21:46:39Z</time>
      </trkpt>
      <trkpt lat="50.843194810049" lon="3.350090281031">
        <ele>18.8</ele>
        <time>2019-05-23T21:46:46Z</time>
      </trkpt>
      <trkpt lat="50.843401842979" lon="3.350101848053">
        <ele>17</ele>
        <time>2019-05-23T21:46:53Z</time>
      </trkpt>
      <trkpt lat="50.843600829285" lon="3.35014065625">
        <ele>16.8</ele>
        <time>2019-05-23T21:46:59Z</time>
      </trkpt>
      <trkpt lat="50.843780118126" lon="3.350170160538">
        <ele>17.2</ele>
        <time>2019-05-23T21:47:05Z</time>
      </trkpt>
      <trkpt lat="50.843966028668" lon="3.350168651796">
        <ele>17.6</ele>
        <time>2019-05-23T21:47:11Z</time>
      </trkpt>
      <trkpt lat="50.844158141816" lon="3.350155576032">
        <ele>17.6</ele>
        <time>2019-05-23T21:47:18Z</time>
      </trkpt>
      <trkpt lat="50.84435561938" lon="3.350195473876">
        <ele>17</ele>
        <time>2019-05-23T21:47:25Z</time>
      </trkpt>
      <trkpt lat="50.844539769723" lon="3.350226319268">
        <ele>17.8</ele>
        <time>2019-05-23T21:47:31Z</time>
      </trkpt>
      <trkpt lat="50.844727356645" lon="3.350264540732">
        <ele>19.2</ele>
        <time>2019-05-23T21:47:37Z</time>
      </trkpt>
      <trkpt lat="50.844914859748" lon="3.350310222087">
        <ele>18.6</ele>
        <time>2019-05-23T21:47:44Z</time>
      </trkpt>
      <trkpt lat="50.845110241837" lon="3.350360848763">
        <ele>16.6</ele>
        <time>2019-05-23T21:47:51Z</time>
      </trkpt>
      <trkpt lat="50.845294475999" lon="3.350380043314">
        <ele>15.4</ele>
        <time>2019-05-23T21:47:58Z</time>
      </trkpt>
      <trkpt lat="50.845497737074" lon="3.350319777453">
        <ele>12.6</ele>
        <time>2019-05-23T21:48:06Z</time>
      </trkpt>
      <trkpt lat="50.845661435581" lon="3.350388089938">
        <ele>11.6</ele>
        <time>2019-05-23T21:48:13Z</time>
      </trkpt>
      <trkpt lat="50.845814656713" lon="3.35055220754">
        <ele>10.2</ele>
        <time>2019-05-23T21:48:20Z</time>
      </trkpt>
      <trkpt lat="50.845834437997" lon="3.350543741821">
        <ele>9.8</ele>
        <time>2019-05-23T21:48:22Z</time>
      </trkpt>
      <trkpt lat="50.845290871782" lon="3.352181229805">
        <ele>0</ele>
        <time>2019-05-23T21:49:47Z</time>
      </trkpt>
      <trkpt lat="50.846357636195" lon="3.350080977122">
        <ele>0</ele>
        <time>2019-05-23T21:49:54Z</time>
      </trkpt>
      <trkpt lat="50.846553856474" lon="3.35014065625">
        <ele>0</ele>
        <time>2019-05-23T21:49:56Z</time>
      </trkpt>
      <trkpt lat="50.846690481444" lon="3.350629069563">
        <ele>0</ele>
        <time>2019-05-23T21:50:04Z</time>
      </trkpt>
      <trkpt lat="50.846879744746" lon="3.350556482309">
        <ele>0</ele>
        <time>2019-05-23T21:50:09Z</time>
      </trkpt>
      <trkpt lat="50.846945039747" lon="3.3506980526">
        <ele>37</ele>
        <time>2019-05-23T21:50:17Z</time>
      </trkpt>
      <trkpt lat="50.847100523992" lon="3.350691849994">
        <ele>51.8</ele>
        <time>2019-05-23T21:50:23Z</time>
      </trkpt>
      <trkpt lat="50.847288949104" lon="3.350715403133">
        <ele>57.6</ele>
        <time>2019-05-23T21:50:31Z</time>
      </trkpt>
      <trkpt lat="50.847492293998" lon="3.350757647909">
        <ele>60.4</ele>
        <time>2019-05-23T21:50:38Z</time>
      </trkpt>
      <trkpt lat="50.84768491006" lon="3.350801904341">
        <ele>55.6</ele>
        <time>2019-05-23T21:50:45Z</time>
      </trkpt>
      <trkpt lat="50.847881717072" lon="3.350866444971">
        <ele>50.4</ele>
        <time>2019-05-23T21:50:52Z</time>
      </trkpt>
      <trkpt lat="50.848085145785" lon="3.35091765838">
        <ele>42</ele>
        <time>2019-05-23T21:50:59Z</time>
      </trkpt>
      <trkpt lat="50.848272397431" lon="3.350966692495">
        <ele>34.6</ele>
        <time>2019-05-23T21:51:06Z</time>
      </trkpt>
      <trkpt lat="50.848463001837" lon="3.350985803227">
        <ele>27.8</ele>
        <time>2019-05-23T21:51:15Z</time>
      </trkpt>
      <trkpt lat="50.848646481628" lon="3.351032155134">
        <ele>22.8</ele>
        <time>2019-05-23T21:51:24Z</time>
      </trkpt>
      <trkpt lat="50.848844797382" lon="3.351097282497">
        <ele>18.8</ele>
        <time>2019-05-23T21:51:32Z</time>
      </trkpt>
      <trkpt lat="50.849040347109" lon="3.351145981336">
        <ele>18</ele>
        <time>2019-05-23T21:51:39Z</time>
      </trkpt>
      <trkpt lat="50.849237154121" lon="3.351202894437">
        <ele>18.2</ele>
        <time>2019-05-23T21:51:46Z</time>
      </trkpt>
      <trkpt lat="50.849429770183" lon="3.35123197963">
        <ele>18.4</ele>
        <time>2019-05-23T21:51:53Z</time>
      </trkpt>
      <trkpt lat="50.84961358525" lon="3.351259891357">
        <ele>19</ele>
        <time>2019-05-23T21:52:00Z</time>
      </trkpt>
      <trkpt lat="50.849807793873" lon="3.351332646249">
        <ele>20.8</ele>
        <time>2019-05-23T21:52:07Z</time>
      </trkpt>
      <trkpt lat="50.849984651963" lon="3.351391571006">
        <ele>18.8</ele>
        <time>2019-05-23T21:52:14Z</time>
      </trkpt>
      <trkpt lat="50.850168047935" lon="3.35144068894">
        <ele>18.8</ele>
        <time>2019-05-23T21:52:21Z</time>
      </trkpt>
      <trkpt lat="50.850347420595" lon="3.351476312015">
        <ele>16.8</ele>
        <time>2019-05-23T21:52:28Z</time>
      </trkpt>
      <trkpt lat="50.850527631445" lon="3.351511515995">
        <ele>17</ele>
        <time>2019-05-23T21:52:34Z</time>
      </trkpt>
      <trkpt lat="50.85073089252" lon="3.351504307561">
        <ele>17.6</ele>
        <time>2019-05-23T21:52:41Z</time>
      </trkpt>
      <trkpt lat="50.850925604057" lon="3.351497434403">
        <ele>18.2</ele>
        <time>2019-05-23T21:52:48Z</time>
      </trkpt>
      <trkpt lat="50.851106820735" lon="3.351505481027">
        <ele>19.6</ele>
        <time>2019-05-23T21:52:55Z</time>
      </trkpt>
      <trkpt lat="50.851309495077" lon="3.351476814929">
        <ele>23</ele>
        <time>2019-05-23T21:53:03Z</time>
      </trkpt>
      <trkpt lat="50.851502111139" lon="3.351444628433">
        <ele>27.2</ele>
        <time>2019-05-23T21:53:11Z</time>
      </trkpt>
      <trkpt lat="50.851702606187" lon="3.351385452219">
        <ele>28.2</ele>
        <time>2019-05-23T21:53:19Z</time>
      </trkpt>
      <trkpt lat="50.851888768186" lon="3.351315630992">
        <ele>24</ele>
        <time>2019-05-23T21:53:26Z</time>
      </trkpt>
      <trkpt lat="50.852061519145" lon="3.351187304103">
        <ele>16.8</ele>
        <time>2019-05-23T21:53:33Z</time>
      </trkpt>
      <trkpt lat="50.852232342267" lon="3.351106921682">
        <ele>18.2</ele>
        <time>2019-05-23T21:53:41Z</time>
      </trkpt>
      <trkpt lat="50.852273329758" lon="3.351086386027">
        <ele>17.6</ele>
        <time>2019-05-23T21:53:43Z</time>
      </trkpt>
      <trkpt lat="50.852459156481" lon="3.351059731585">
        <ele>22.2</ele>
        <time>2019-05-23T21:53:51Z</time>
      </trkpt>
      <trkpt lat="50.85265537676" lon="3.351025030519">
        <ele>26</ele>
        <time>2019-05-23T21:53:59Z</time>
      </trkpt>
      <trkpt lat="50.852848831012" lon="3.350973230377">
        <ele>27.2</ele>
        <time>2019-05-23T21:54:08Z</time>
      </trkpt>
      <trkpt lat="50.853056283037" lon="3.350924280081">
        <ele>31</ele>
        <time>2019-05-23T21:54:17Z</time>
      </trkpt>
      <trkpt lat="50.853129959938" lon="3.350858314528">
        <ele>28.2</ele>
        <time>2019-05-23T21:54:21Z</time>
      </trkpt>
      <trkpt lat="50.853156949656" lon="3.350754043692">
        <ele>28.4</ele>
        <time>2019-05-23T21:54:25Z</time>
      </trkpt>
      <trkpt lat="50.853190058161" lon="3.350770472216">
        <ele>28.2</ele>
        <time>2019-05-23T21:54:27Z</time>
      </trkpt>
      <trkpt lat="50.853370185192" lon="3.35085395594">
        <ele>26.8</ele>
        <time>2019-05-23T21:54:36Z</time>
      </trkpt>
      <trkpt lat="50.8535405054" lon="3.35084641223">
        <ele>25.6</ele>
        <time>2019-05-23T21:54:45Z</time>
      </trkpt>
      <trkpt lat="50.853697414568" lon="3.350750271837">
        <ele>26.8</ele>
        <time>2019-05-23T21:55:04Z</time>
      </trkpt>
      <trkpt lat="50.853891287915" lon="3.350662261887">
        <ele>27.8</ele>
        <time>2019-05-23T21:55:11Z</time>
      </trkpt>
      <trkpt lat="50.854075689715" lon="3.350567546417">
        <ele>26</ele>
        <time>2019-05-23T21:55:18Z</time>
      </trkpt>
      <trkpt lat="50.854250284692" lon="3.350448439618">
        <ele>26</ele>
        <time>2019-05-23T21:55:25Z</time>
      </trkpt>
      <trkpt lat="50.854436949605" lon="3.350407368308">
        <ele>24.8</ele>
        <time>2019-05-23T21:55:32Z</time>
      </trkpt>
      <trkpt lat="50.854633169884" lon="3.35038959868">
        <ele>24.6</ele>
        <time>2019-05-23T21:55:39Z</time>
      </trkpt>
      <trkpt lat="50.854806507576" lon="3.350352802139">
        <ele>26.4</ele>
        <time>2019-05-23T21:55:46Z</time>
      </trkpt>
      <trkpt lat="50.854797706581" lon="3.350422707185">
        <ele>27.2</ele>
        <time>2019-05-23T21:55:49Z</time>
      </trkpt>
      <trkpt lat="50.854687819872" lon="3.350489762385">
        <ele>24.6</ele>
        <time>2019-05-23T21:55:55Z</time>
      </trkpt>
      <trkpt lat="50.854611125487" lon="3.350465371056">
        <ele>23.4</ele>
        <time>2019-05-23T21:56:52Z</time>
      </trkpt>
      <trkpt lat="50.854605425795" lon="3.350468137083">
        <ele>23.2</ele>
        <time>2019-05-23T21:56:53Z</time>
      </trkpt>
      <trkpt lat="50.854547003952" lon="3.350472914766">
        <ele>23.6</ele>
        <time>2019-05-23T21:56:57Z</time>
      </trkpt>
      <trkpt lat="50.854357656831" lon="3.350579700172">
        <ele>18.6</ele>
        <time>2019-05-23T21:57:06Z</time>
      </trkpt>
      <trkpt lat="50.854180714922" lon="3.350684222465">
        <ele>14.4</ele>
        <time>2019-05-23T21:57:13Z</time>
      </trkpt>
      <trkpt lat="50.854005030298" lon="3.350803077807">
        <ele>9.4</ele>
        <time>2019-05-23T21:57:20Z</time>
      </trkpt>
      <trkpt lat="50.853818197747" lon="3.350826798584">
        <ele>7.4</ele>
        <time>2019-05-23T21:57:26Z</time>
      </trkpt>
      <trkpt lat="50.853626252237" lon="3.350862589297">
        <ele>7.2</ele>
        <time>2019-05-23T21:57:32Z</time>
      </trkpt>
      <trkpt lat="50.853442101894" lon="3.350908689747">
        <ele>5.6</ele>
        <time>2019-05-23T21:57:38Z</time>
      </trkpt>
      <trkpt lat="50.853259041198" lon="3.350950431609">
        <ele>5.8</ele>
        <time>2019-05-23T21:57:44Z</time>
      </trkpt>
      <trkpt lat="50.853059971073" lon="3.351012038574">
        <ele>8</ele>
        <time>2019-05-23T21:57:51Z</time>
      </trkpt>
      <trkpt lat="50.852882274793" lon="3.351079764326">
        <ele>6.4</ele>
        <time>2019-05-23T21:57:57Z</time>
      </trkpt>
      <trkpt lat="50.852677588795" lon="3.351135755418">
        <ele>8.6</ele>
        <time>2019-05-23T21:58:04Z</time>
      </trkpt>
      <trkpt lat="50.852498970506" lon="3.351204151722">
        <ele>5</ele>
        <time>2019-05-23T21:58:11Z</time>
      </trkpt>
      <trkpt lat="50.852480949421" lon="3.351219658237">
        <ele>4.6</ele>
        <time>2019-05-23T21:58:12Z</time>
      </trkpt>
      <trkpt lat="50.852358238405" lon="3.351261651556">
        <ele>5.6</ele>
        <time>2019-05-23T21:58:24Z</time>
      </trkpt>
      <trkpt lat="50.852290345015" lon="3.351290150016">
        <ele>10.2</ele>
        <time>2019-05-23T21:58:28Z</time>
      </trkpt>
      <trkpt lat="50.852091191071" lon="3.351325102539">
        <ele>11.6</ele>
        <time>2019-05-23T21:58:35Z</time>
      </trkpt>
      <trkpt lat="50.85190352033" lon="3.351396767784">
        <ele>11.4</ele>
        <time>2019-05-23T21:58:41Z</time>
      </trkpt>
      <trkpt lat="50.851712999743" lon="3.351470193228">
        <ele>12</ele>
        <time>2019-05-23T21:58:47Z</time>
      </trkpt>
      <trkpt lat="50.851530274323" lon="3.351554934237">
        <ele>11.4</ele>
        <time>2019-05-23T21:58:54Z</time>
      </trkpt>
      <trkpt lat="50.851347297446" lon="3.35159743047">
        <ele>8.4</ele>
        <time>2019-05-23T21:59:01Z</time>
      </trkpt>
      <trkpt lat="50.851165577854" lon="3.351719973848">
        <ele>5.6</ele>
        <time>2019-05-23T21:59:08Z</time>
      </trkpt>
      <trkpt lat="50.851146467122" lon="3.351728942481">
        <ele>5.6</ele>
        <time>2019-05-23T21:59:09Z</time>
      </trkpt>
      <trkpt lat="50.850938512183" lon="3.351798512251">
        <ele>16.8</ele>
        <time>2019-05-23T22:05:59Z</time>
      </trkpt>
      <trkpt lat="50.85097145305" lon="3.352097243167">
        <ele>15.4</ele>
        <time>2019-05-23T22:06:10Z</time>
      </trkpt>
      <trkpt lat="50.851016966767" lon="3.352412821702">
        <ele>13.8</ele>
        <time>2019-05-23T22:06:18Z</time>
      </trkpt>
      <trkpt lat="50.8510343173" lon="3.352710798247">
        <ele>14.4</ele>
        <time>2019-05-23T22:06:25Z</time>
      </trkpt>
      <trkpt lat="50.851049320901" lon="3.35300726605">
        <ele>16</ele>
        <time>2019-05-23T22:06:32Z</time>
      </trkpt>
      <trkpt lat="50.851045800503" lon="3.353295100496">
        <ele>16</ele>
        <time>2019-05-23T22:06:39Z</time>
      </trkpt>
      <trkpt lat="50.851048482711" lon="3.353609840841">
        <ele>16.4</ele>
        <time>2019-05-23T22:06:46Z</time>
      </trkpt>
      <trkpt lat="50.851075640067" lon="3.353912762707">
        <ele>17.2</ele>
        <time>2019-05-23T22:06:53Z</time>
      </trkpt>
      <trkpt lat="50.85108796146" lon="3.354024241977">
        <ele>17</ele>
        <time>2019-05-23T22:06:56Z</time>
      </trkpt>
      <trkpt lat="50.851077986999" lon="3.354067073486">
        <ele>19.6</ele>
        <time>2019-05-23T22:07:56Z</time>
      </trkpt>
      <trkpt lat="50.851169852623" lon="3.35435591376">
        <ele>16.4</ele>
        <time>2019-05-23T22:08:07Z</time>
      </trkpt>
      <trkpt lat="50.851246295551" lon="3.354621117076">
        <ele>13.4</ele>
        <time>2019-05-23T22:08:13Z</time>
      </trkpt>
      <trkpt lat="50.851368587472" lon="3.354850026765">
        <ele>11.8</ele>
        <time>2019-05-23T22:08:20Z</time>
      </trkpt>
      <trkpt lat="50.851551815806" lon="3.354897300681">
        <ele>12.8</ele>
        <time>2019-05-23T22:08:26Z</time>
      </trkpt>
      <trkpt lat="50.851732445751" lon="3.354852206059">
        <ele>11.2</ele>
        <time>2019-05-23T22:08:33Z</time>
      </trkpt>
      <trkpt lat="50.851759603107" lon="3.354852876611">
        <ele>10</ele>
        <time>2019-05-23T22:09:07Z</time>
      </trkpt>
      <trkpt lat="50.851959343784" lon="3.354872490257">
        <ele>9</ele>
        <time>2019-05-23T22:09:17Z</time>
      </trkpt>
      <trkpt lat="50.852118599884" lon="3.35503903861">
        <ele>8.6</ele>
        <time>2019-05-23T22:09:24Z</time>
      </trkpt>
      <trkpt lat="50.852261343641" lon="3.355245903902">
        <ele>8.8</ele>
        <time>2019-05-23T22:09:32Z</time>
      </trkpt>
      <trkpt lat="50.852446583631" lon="3.3552075148">
        <ele>14.8</ele>
        <time>2019-05-23T22:09:39Z</time>
      </trkpt>
      <trkpt lat="50.852648335964" lon="3.355132496795">
        <ele>21.2</ele>
        <time>2019-05-23T22:09:46Z</time>
      </trkpt>
      <trkpt lat="50.852837096352" lon="3.355126880922">
        <ele>17.2</ele>
        <time>2019-05-23T22:09:53Z</time>
      </trkpt>
      <trkpt lat="50.852855787989" lon="3.355148590043">
        <ele>16.6</ele>
        <time>2019-05-23T22:09:54Z</time>
      </trkpt>
      <trkpt lat="50.852971625847" lon="3.355664663626">
        <ele>15.2</ele>
        <time>2019-05-23T22:10:06Z</time>
      </trkpt>
      <trkpt lat="50.853019318858" lon="3.355938332661">
        <ele>13.6</ele>
        <time>2019-05-23T22:10:12Z</time>
      </trkpt>
      <trkpt lat="50.853076567235" lon="3.356237734129">
        <ele>11.6</ele>
        <time>2019-05-23T22:10:20Z</time>
      </trkpt>
      <trkpt lat="50.853141443141" lon="3.35652850224">
        <ele>7.2</ele>
        <time>2019-05-23T22:10:27Z</time>
      </trkpt>
      <trkpt lat="50.853184945202" lon="3.356822790749">
        <ele>8.4</ele>
        <time>2019-05-23T22:10:33Z</time>
      </trkpt>
      <trkpt lat="50.853232722032" lon="3.357108194444">
        <ele>10</ele>
        <time>2019-05-23T22:10:40Z</time>
      </trkpt>
      <trkpt lat="50.853235823335" lon="3.35712613171">
        <ele>9.8</ele>
        <time>2019-05-23T22:10:41Z</time>
      </trkpt>
      <trkpt lat="50.853229285453" lon="3.357585627468">
        <ele>31.8</ele>
        <time>2019-05-23T22:14:08Z</time>
      </trkpt>
      <trkpt lat="50.853224843046" lon="3.357566852012">
        <ele>31.6</ele>
        <time>2019-05-23T22:14:09Z</time>
      </trkpt>
      <trkpt lat="50.853194584387" lon="3.357279017566">
        <ele>32.2</ele>
        <time>2019-05-23T22:14:17Z</time>
      </trkpt>
      <trkpt lat="50.853154351267" lon="3.356992272767">
        <ele>26.8</ele>
        <time>2019-05-23T22:14:25Z</time>
      </trkpt>
      <trkpt lat="50.85311386669" lon="3.356703767769">
        <ele>22.4</ele>
        <time>2019-05-23T22:14:35Z</time>
      </trkpt>
      <trkpt lat="50.853088218076" lon="3.356396822591">
        <ele>20.8</ele>
        <time>2019-05-23T22:14:46Z</time>
      </trkpt>
      <trkpt lat="50.853034573916" lon="3.356087949576">
        <ele>20.6</ele>
        <time>2019-05-23T22:14:53Z</time>
      </trkpt>
      <trkpt lat="50.852966931983" lon="3.355817130387">
        <ele>16.8</ele>
        <time>2019-05-23T22:14:59Z</time>
      </trkpt>
      <trkpt lat="50.852912784909" lon="3.355536001461">
        <ele>15.6</ele>
        <time>2019-05-23T22:15:05Z</time>
      </trkpt>
      <trkpt lat="50.852835839067" lon="3.355263086797">
        <ele>14.2</ele>
        <time>2019-05-23T22:15:12Z</time>
      </trkpt>
      <trkpt lat="50.852662501375" lon="3.355212208664">
        <ele>13</ele>
        <time>2019-05-23T22:15:21Z</time>
      </trkpt>
      <trkpt lat="50.852481284697" lon="3.355278928588">
        <ele>13.4</ele>
        <time>2019-05-23T22:15:28Z</time>
      </trkpt>
      <trkpt lat="50.852288920092" lon="3.355324358486">
        <ele>14</ele>
        <time>2019-05-23T22:15:35Z</time>
      </trkpt>
      <trkpt lat="50.852136369512" lon="3.355147081301">
        <ele>18</ele>
        <time>2019-05-23T22:15:42Z</time>
      </trkpt>
      <trkpt lat="50.852001923836" lon="3.35495521961">
        <ele>18.4</ele>
        <time>2019-05-23T22:15:49Z</time>
      </trkpt>
      <trkpt lat="50.85180796667" lon="3.354950861022">
        <ele>16</ele>
        <time>2019-05-23T22:15:56Z</time>
      </trkpt>
      <trkpt lat="50.85162775582" lon="3.354937952896">
        <ele>17.8</ele>
        <time>2019-05-23T22:16:04Z</time>
      </trkpt>
      <trkpt lat="50.851431284084" lon="3.354943401131">
        <ele>17.4</ele>
        <time>2019-05-23T22:16:12Z</time>
      </trkpt>
      <trkpt lat="50.851399013769" lon="3.35494935228">
        <ele>17.8</ele>
        <time>2019-05-23T22:16:13Z</time>
      </trkpt>
      <trkpt lat="50.851301196996" lon="3.354959829655">
        <ele>17.4</ele>
        <time>2019-05-23T22:16:19Z</time>
      </trkpt>
      <trkpt lat="50.851190472097" lon="3.354704768438">
        <ele>17</ele>
        <time>2019-05-23T22:16:26Z</time>
      </trkpt>
      <trkpt lat="50.851097433007" lon="3.354421124942">
        <ele>17.8</ele>
        <time>2019-05-23T22:16:33Z</time>
      </trkpt>
      <trkpt lat="50.851013865464" lon="3.354148294097">
        <ele>19.4</ele>
        <time>2019-05-23T22:16:40Z</time>
      </trkpt>
      <trkpt lat="50.850944714789" lon="3.353874708881">
        <ele>19.2</ele>
        <time>2019-05-23T22:16:46Z</time>
      </trkpt>
      <trkpt lat="50.850912109198" lon="3.353583354037">
        <ele>18.4</ele>
        <time>2019-05-23T22:16:53Z</time>
      </trkpt>
      <trkpt lat="50.850897776149" lon="3.353263081638">
        <ele>15</ele>
        <time>2019-05-23T22:17:00Z</time>
      </trkpt>
      <trkpt lat="50.850892747009" lon="3.353003661833">
        <ele>13.8</ele>
        <time>2019-05-23T22:17:06Z</time>
      </trkpt>
      <trkpt lat="50.850900374538" lon="3.352685820185">
        <ele>13</ele>
        <time>2019-05-23T22:17:14Z</time>
      </trkpt>
      <trkpt lat="50.850909343171" lon="3.352369654917">
        <ele>13.4</ele>
        <time>2019-05-23T22:17:22Z</time>
      </trkpt>
      <trkpt lat="50.850900793633" lon="3.35204502393">
        <ele>11</ele>
        <time>2019-05-23T22:17:30Z</time>
      </trkpt>
      <trkpt lat="50.850846311283" lon="3.351764900832">
        <ele>10.8</ele>
        <time>2019-05-23T22:17:38Z</time>
      </trkpt>
      <trkpt lat="50.850659227275" lon="3.351729696852">
        <ele>11.8</ele>
        <time>2019-05-23T22:17:47Z</time>
      </trkpt>
      <trkpt lat="50.850467030308" lon="3.351727601377">
        <ele>13.6</ele>
        <time>2019-05-23T22:17:55Z</time>
      </trkpt>
      <trkpt lat="50.850279191929" lon="3.351688122628">
        <ele>15.2</ele>
        <time>2019-05-23T22:18:03Z</time>
      </trkpt>
      <trkpt lat="50.850090431541" lon="3.35164436911">
        <ele>17.8</ele>
        <time>2019-05-23T22:18:11Z</time>
      </trkpt>
      <trkpt lat="50.849887589561" lon="3.351599861221">
        <ele>18.6</ele>
        <time>2019-05-23T22:18:19Z</time>
      </trkpt>
      <trkpt lat="50.849708635996" lon="3.35153791898">
        <ele>17</ele>
        <time>2019-05-23T22:18:26Z</time>
      </trkpt>
      <trkpt lat="50.849522138721" lon="3.351504726656">
        <ele>17.6</ele>
        <time>2019-05-23T22:18:33Z</time>
      </trkpt>
      <trkpt lat="50.849316279257" lon="3.351490058331">
        <ele>15</ele>
        <time>2019-05-23T22:18:41Z</time>
      </trkpt>
      <trkpt lat="50.849130703991" lon="3.351474467997">
        <ele>15</ele>
        <time>2019-05-23T22:18:49Z</time>
      </trkpt>
      <trkpt lat="50.848946972743" lon="3.351410933195">
        <ele>16</ele>
        <time>2019-05-23T22:18:58Z</time>
      </trkpt>
      <trkpt lat="50.848758799088" lon="3.351321079227">
        <ele>14.2</ele>
        <time>2019-05-23T22:19:06Z</time>
      </trkpt>
      <trkpt lat="50.848578085324" lon="3.351314457526">
        <ele>8.2</ele>
        <time>2019-05-23T22:19:14Z</time>
      </trkpt>
      <trkpt lat="50.848193439933" lon="3.351239858616">
        <ele>13.4</ele>
        <time>2019-05-23T22:19:29Z</time>
      </trkpt>
      <trkpt lat="50.848001159147" lon="3.351215299649">
        <ele>15.8</ele>
        <time>2019-05-23T22:19:37Z</time>
      </trkpt>
      <trkpt lat="50.847805190325" lon="3.351174060701">
        <ele>15.4</ele>
        <time>2019-05-23T22:19:46Z</time>
      </trkpt>
      <trkpt lat="50.847616597575" lon="3.351124607491">
        <ele>14.8</ele>
        <time>2019-05-23T22:19:53Z</time>
      </trkpt>
      <trkpt lat="50.847423813875" lon="3.351079848145">
        <ele>15.4</ele>
        <time>2019-05-23T22:20:00Z</time>
      </trkpt>
      <trkpt lat="50.847228180329" lon="3.351022599768">
        <ele>15.4</ele>
        <time>2019-05-23T22:20:08Z</time>
      </trkpt>
      <trkpt lat="50.847029194023" lon="3.351012290031">
        <ele>15.4</ele>
        <time>2019-05-23T22:20:16Z</time>
      </trkpt>
      <trkpt lat="50.846837248513" lon="3.350976247861">
        <ele>13.8</ele>
        <time>2019-05-23T22:20:23Z</time>
      </trkpt>
      <trkpt lat="50.846653852541" lon="3.350963172097">
        <ele>11.6</ele>
        <time>2019-05-23T22:20:30Z</time>
      </trkpt>
      <trkpt lat="50.846454111864" lon="3.350889830472">
        <ele>14.2</ele>
        <time>2019-05-23T22:20:37Z</time>
      </trkpt>
      <trkpt lat="50.846250850789" lon="3.350853033931">
        <ele>14.4</ele>
        <time>2019-05-23T22:20:45Z</time>
      </trkpt>
      <trkpt lat="50.846043147307" lon="3.35082713386">
        <ele>12.6</ele>
        <time>2019-05-23T22:20:52Z</time>
      </trkpt>
      <trkpt lat="50.84584759758" lon="3.350797294296">
        <ele>14</ele>
        <time>2019-05-23T22:20:59Z</time>
      </trkpt>
      <trkpt lat="50.845667470549" lon="3.350757312633">
        <ele>14.2</ele>
        <time>2019-05-23T22:21:06Z</time>
      </trkpt>
      <trkpt lat="50.845499664911" lon="3.35090927648">
        <ele>14.8</ele>
        <time>2019-05-23T22:21:15Z</time>
      </trkpt>
      <trkpt lat="50.845326913952" lon="3.350815566838">
        <ele>16.2</ele>
        <time>2019-05-23T22:21:22Z</time>
      </trkpt>
      <trkpt lat="50.845169082775" lon="3.350643151155">
        <ele>16.4</ele>
        <time>2019-05-23T22:21:29Z</time>
      </trkpt>
      <trkpt lat="50.8449825855" lon="3.350613227772">
        <ele>15.8</ele>
        <time>2019-05-23T22:21:36Z</time>
      </trkpt>
      <trkpt lat="50.844787203411" lon="3.350605432605">
        <ele>18</ele>
        <time>2019-05-23T22:21:43Z</time>
      </trkpt>
      <trkpt lat="50.84458276887" lon="3.35059914618">
        <ele>18</ele>
        <time>2019-05-23T22:21:50Z</time>
      </trkpt>
      <trkpt lat="50.844398786165" lon="3.350598224171">
        <ele>19.6</ele>
        <time>2019-05-23T22:21:57Z</time>
      </trkpt>
      <trkpt lat="50.844220000238" lon="3.350549525332">
        <ele>19.2</ele>
        <time>2019-05-23T22:22:04Z</time>
      </trkpt>
      <trkpt lat="50.844035095524" lon="3.350493701878">
        <ele>20</ele>
        <time>2019-05-23T22:22:11Z</time>
      </trkpt>
      <trkpt lat="50.8438342652" lon="3.350462688848">
        <ele>20.2</ele>
        <time>2019-05-23T22:22:19Z</time>
      </trkpt>
      <trkpt lat="50.843642738785" lon="3.350403764091">
        <ele>18.8</ele>
        <time>2019-05-23T22:22:27Z</time>
      </trkpt>
      <trkpt lat="50.843463282306" lon="3.350341905669">
        <ele>17.6</ele>
        <time>2019-05-23T22:22:35Z</time>
      </trkpt>
      <trkpt lat="50.843266056199" lon="3.350281388351">
        <ele>15.8</ele>
        <time>2019-05-23T22:22:45Z</time>
      </trkpt>
      <trkpt lat="50.843131778161" lon="3.350220619576">
        <ele>13.8</ele>
        <time>2019-05-23T22:22:53Z</time>
      </trkpt>
    </trkseg>
  </trk>
</gpx>